Please find us some missing NFOs.

PRE DATA

Datetime Release
2016-11-07 00:00:24 Ranczo.S10E10.POLISH.HDTV.x264-A4O
2016-11-07 00:00:46 The_Prophet_and_Rob_Gee_-_Hunt_You_Down-(SCANTRAXX221)-WEB-2016-HB
2016-11-07 00:01:10 Anthony_B-High_Grade-VLS-1999-YARD
2016-11-07 00:02:32 SOKO.Koeln.S13E05.Toedliche.Melodie.German.720p.HDTV.x264-ATAX
2016-11-07 00:02:49 Mega_Banton-Rewind-VLS-1998-YARD
2016-11-07 00:03:32 Steffie_D-Hail_Up-VLS-1998-YARD
2016-11-07 00:03:45 SOKO.Koeln.S13E05.Toedliche.Melodie.German.HDTVRip.x264-ATAX
2016-11-07 00:03:58 Marvels.Agents.of.S.H.I.E.L.D.S03E07.FRENCH.720p.HDTV.x264-SH0W
2016-11-07 00:04:22 Humans.S02E02.1080p.HDTV.x264-TLA
2016-11-07 00:04:49 SOKO.Leipzig.S16E08.Heimatlos.German.720p.HDTV.x264-ATAX
2016-11-07 00:05:08 Leon_Danger-Im_A_Daddy_Now-VLS-1998-YARD
2016-11-07 00:06:02 SOKO.Leipzig.S16E08.Heimatlos.German.HDTVRip.x264-ATAX
2016-11-07 00:06:42 Tanto_Metro-Respect-VLS-1996-YARD
2016-11-07 00:07:08 SOKO.Wien.S11E02.Briefe.einer.Toten.German.720p.HDTV.x264-ATAX
2016-11-07 00:07:23 Tanto_Metro-Round_Robin-VLS-1998-YARD
2016-11-07 00:08:07 Zebra-Hype_Type_A_Love-VLS-1998-YARD
2016-11-07 00:08:23 SOKO.Wien.S11E02.Briefe.einer.Toten.German.HDTVRip.x264-ATAX
2016-11-07 00:08:42 Lukie_D-You_Sang_To_Me-VLS-2001-YARD
2016-11-07 00:09:32 SOKO.Wismar.S14E05.Toedliches.Alibi.German.720p.HDTV.x264-ATAX
2016-11-07 00:09:48 Morgan_Heritage_and_Daddy_Gong-Give_A_Little_Love-VLS-2001-YARD_INT
2016-11-07 00:10:44 SOKO.Wismar.S14E05.Toedliches.Alibi.German.HDTVRip.x264-ATAX
2016-11-07 00:17:23 The.Blacklist.S04E06.SPANiSH.1080p.HDTV.x264-FCC
2016-11-07 00:18:00 Le.Petit.Monde.De.Don.Camillo.1952.FRENCH.720p.BluRay.x264-AiRLiNE
2016-11-07 00:18:51 Z.Nation.S03E07.1080p.WEB.x264-HEAT
2016-11-07 00:19:29 The.Blacklist.S04E06.SPANiSH.720p.HDTV.x264-FCC
2016-11-07 00:19:58 Loosely.Exactly.Nicole.S01E10.1080p.WEB.x264-TURBO
2016-11-07 00:20:34 The.Blacklist.S04E06.SPANiSH.HDTV.x264-FCC
2016-11-07 00:21:42 Le.Petit.Monde.De.Don.Camillo.1952.FRENCH.BDRip.x264-RUDE
2016-11-07 00:22:42 Lewis_Parker-Release_the_Stress_BW_Mellow_Blow-Single-WEB-2016-ENRAGED
2016-11-07 00:22:49 The.X.Factor.UK.S13E22.WEB.x264-HEAT
2016-11-07 00:22:59 Planes.Fire.and.Rescue.2014.PLDUB.DUAL.720p.BluRay.x264-ProPL
2016-11-07 00:24:49 Zara_larsson-medley_(mtv_ema_2016)-1080p-x264-2016-JESTERS
2016-11-07 00:26:15 Marvels.Agents.of.S.H.I.E.L.D.S03E07.FRENCH.HDTV.x264-AMB3R
2016-11-07 00:28:43 Marvels.Agents.of.S.H.I.E.L.D.S03E05.FRENCH.1080p.HDTV.x264-Ryotox
2016-11-07 00:30:33 Van.Helsing.S01E08.1080p.WEB.x264-HEAT
2016-11-07 00:32:33 Le.Petit.Monde.De.Don.Camillo.1952.FRENCH.1080p.BluRay.x264-AiRLiNE
2016-11-07 00:35:14 The.Young.Pope.S01E05.GERMAN.720p.HDTV.x264-ACED
2016-11-07 00:35:42 Le.Petit.Monde.De.Don.Camillo.1952.FRENCH.COMPLETE.BLURAY-AiRFORCE
2016-11-07 00:35:46 The.Young.Pope.S01E05.GERMAN.HDTV.x264-ACED
2016-11-07 00:35:55 The.Next.Great.Magician.S01E01.720p.HDTV.x264-PLUTONiUM
2016-11-07 00:36:20 The.Young.Pope.S01E06.GERMAN.720p.HDTV.x264-ACED
2016-11-07 00:36:33 Planes.Fire.and.Rescue.2014.PLDUB.DUAL.1080p.BluRay.x264-ProPL
2016-11-07 00:36:52 The.Young.Pope.S01E06.GERMAN.HDTV.x264-ACED
2016-11-07 00:41:23 Pirados.Al.Rescate.2014.SPANiSH.BDRip.x264-TORO
2016-11-07 00:41:40 Blunt.Talk.S02E06.1080p.WEBRip.X264-DEFLATE
2016-11-07 00:41:54 The.X.Factor.UK.S13E22.720p.HDTV.x264-FTP
2016-11-07 00:46:35 Z.Nation.S03E08.1080p.WEB.x264-HEAT
2016-11-07 00:50:26 I.Simpson.S27E15.iTALiAN.720p.HDTV.x264-iDiB
2016-11-07 00:50:26 Aftermath.S01E06.1080p.WEB.x264-HEAT
2016-11-07 00:50:34 I.Simpson.S27E15.iTALiAN.HDTV.x264-iDiB
2016-11-07 00:50:51 I.Simpson.S27E16.iTALiAN.720p.HDTV.x264-iDiB
2016-11-07 00:51:02 I.Simpson.S27E16.iTALiAN.HDTV.x264-iDiB
2016-11-07 00:52:42 LNFS.05.11.2016.ElPozo.Murcia.Vs.Movistar.Inter.FS.SPANiSH.HR.WS.PDTV.X264-LPH
2016-11-07 00:53:17 Pirados.Al.Rescate.2014.SPANiSH.MULTi.720p.BluRay.x264-TORO
2016-11-07 00:53:20 NaturaVivaSounds-TechnoAndTechHouseGrooves-PHOTONE
2016-11-07 00:54:14 Channel.Zero.S01E04.1080p.WEB.x264-HEAT
2016-11-07 00:55:50 Pirados.Al.Rescate.2014.SPANiSH.MULTi.1080p.BluRay.x264-TORO
2016-11-07 01:00:17 The.Xtra.Factor.UK.S13E22.WEB.x264-HEAT
2016-11-07 01:02:32 Jeuk.S04E01.DUTCH.1080p.HDTV.x264-DiFFERENT
2016-11-07 01:03:11 Los.Simpsons.S17E01.SPANiSH.HR.WS.PDTV.X264-LPH
2016-11-07 01:03:25 La.Famiglia.S01E06.DUTCH.720p.HDTV.x264-DiFFERENT
2016-11-07 01:03:39 Ghosthunters.3D.2016.German.DL.720p.BluRay.x264-LizardSquad
2016-11-07 01:04:34 Ghosthunters.3D.2016.German.DL.1080p.BluRay.x264-LizardSquad
2016-11-07 01:04:52 Los.Simpsons.S17E02.SPANiSH.HR.WS.PDTV.X264-LPH
2016-11-07 01:07:30 Los.Simpsons.S17E03.SPANiSH.HR.WS.PDTV.X264-LPH
2016-11-07 01:08:52 Los.Simpsons.S17E04.SPANiSH.HR.WS.PDTV.X264-LPH
2016-11-07 01:10:03 Falling.Water.S01E04.1080p.WEB.x264-HEAT
2016-11-07 01:10:32 Los.Simpsons.S17E05.SPANiSH.HR.WS.PDTV.X264-LPH
2016-11-07 01:11:53 Los.Simpsons.S17E06.SPANiSH.HR.WS.PDTV.X264-LPH
2016-11-07 01:13:26 Los.Simpsons.S17E07.SPANiSH.HR.WS.PDTV.X264-LPH
2016-11-07 01:14:50 Los.Simpsons.S17E08.SPANiSH.HR.WS.PDTV.X264-LPH
2016-11-07 01:15:45 NanoMusikLoops-BalearicChilloutV1-PHOTONE
2016-11-07 01:16:23 Los.Simpsons.S17E09.SPANiSH.HR.WS.PDTV.X264-LPH
2016-11-07 01:18:12 Los.Simpsons.S17E10.SPANiSH.HR.WS.PDTV.X264-LPH
2016-11-07 01:20:00 Los.Simpsons.S17E11.SPANiSH.HR.WS.PDTV.X264-LPH
2016-11-07 01:20:14 Shameless.US.S07E04.SPANiSH.720p.HDTV.x264-FERiCE
2016-11-07 01:21:42 Los.Simpsons.S17E12.SPANiSH.HR.WS.PDTV.X264-LPH
2016-11-07 01:22:42 Shameless.US.S07E04.SPANiSH.HDTV.x264-FERiCE
2016-11-07 01:23:33 Los.Simpsons.S17E13.SPANiSH.HR.WS.PDTV.X264-LPH
2016-11-07 01:24:59 Zulu.1964.WS.PAL.DVDR.iNT-EwDp
2016-11-07 01:25:15 Los.Simpsons.S17E14.SPANiSH.HR.WS.PDTV.X264-LPH
2016-11-07 01:26:45 Los.Simpsons.S17E15.SPANiSH.HR.WS.PDTV.X264-LPH
2016-11-07 01:27:49 NanoMusikLoops-BeatsAndLoopsV2-PHOTONE
2016-11-07 01:28:08 Covenant-The_Blinding_Dark-2CD-FLAC-2016-flacme
2016-11-07 01:28:45 Los.Simpsons.S17E16.SPANiSH.HR.WS.PDTV.X264-LPH
2016-11-07 01:28:51 Near.Dark.1987.WS.PAL.DVDR.iNT-EwDp
2016-11-07 01:30:28 Los.Simpsons.S17E17.SPANiSH.HR.WS.PDTV.X264-LPH
2016-11-07 01:30:40 DigitalPlayground.16.11.07.Alexis.Fawx.And.Lily.Adams.Cumming.Of.Age.Part.3.XXX.1080p.MP4-KTR
2016-11-07 01:32:00 GFRevenge.16.11.07.Veronica.Snow.All.Ass.XXX.1080p.MP4-KTR
2016-11-07 01:32:22 Los.Simpsons.S17E18.SPANiSH.HR.WS.PDTV.X264-LPH
2016-11-07 01:33:28 IKnowThatGirl.16.11.07.Nina.North.Hot.Latina.Bouncing.Big.Tits.XXX.1080p.MP4-KTR
2016-11-07 01:33:47 Los.Simpsons.S17E19.SPANiSH.HR.WS.PDTV.X264-LPH
2016-11-07 01:34:26 NanoMusikLoops-BigRoomTranceChordsV9-PHOTONE
2016-11-07 01:34:29 MilfHunter.16.11.07.Brandi.Love.Peeking.At.Brandi.XXX.1080p.MP4-KTR
2016-11-07 01:35:04 Los.Simpsons.S17E20.SPANiSH.HR.WS.PDTV.X264-LPH
2016-11-07 01:35:39 MomsBangTeens.16.11.07.Vanessa.Sparks.And.Jamie.Valentine.The.Report.Card.XXX.1080p.MP4-KTR
2016-11-07 01:36:32 Los.Simpsons.S17E21.SPANiSH.HR.WS.PDTV.X264-LPH
2016-11-07 01:36:46 Passion-HD.16.11.07.Eveline.Neil.Hot.Rub.Down.XXX.INTERNAL.1080p.MP4-KTR
2016-11-07 01:37:26 Into.the.Badlands.S01E01.SUBFRENCH.1080p.HDTV.x264-SH0W
2016-11-07 01:37:57 Los.Simpsons.S17E22.SPANiSH.HR.WS.PDTV.X264-LPH
2016-11-07 01:38:21 OnlyTease.16.11.07.Harley.XXX.1080p.MP4-KTR
2016-11-07 01:40:12 Finances.of.the.Grand.Duke.1924.720p.BluRay.x264-USURY
2016-11-07 01:40:13 The.Walking.Dead.S02E01.SPANiSH.1080p.BLURAY.X264-LPH
2016-11-07 01:43:31 Tartuffe.1925.720p.BluRay.x264-USURY
2016-11-07 01:44:35 Singomakers-A-ClassDanceFX-PHOTONE
2016-11-07 01:44:47 Adam.Eva.S03E01.DUTCH.1080p.HDTV.x264-DiFFERENT
2016-11-07 01:45:07 Salem.S03E01.German.DL.1080p.HDTV.x264-AIDA
2016-11-07 01:46:39 The.Last.Laugh.1924.720p.BluRay.x264-USURY
2016-11-07 01:46:40 Clinton.Cash.2016.DVDRip.x264-REGRET
2016-11-07 01:50:33 Speedway.1929.DSR.x264-REGRET
2016-11-07 01:52:04 Finances.of.the.Grand.Duke.1924.1080p.BluRay.x264-USURY
2016-11-07 01:54:22 The.Simpsons.S28E06.720p.HDTV.x264-KILLERS
2016-11-07 01:54:38 Stuart.Saves.His.Family.1995.iNTERNAL.WEBRip.x264-REGRET
2016-11-07 01:54:59 Murdoch.Mysteries.S09E17.FRENCH.720p.HDTV.x264-AMB3R
2016-11-07 01:56:06 Murdoch.Mysteries.S09E18.FRENCH.720p.HDTV.x264-AMB3R
2016-11-07 01:56:57 The.Simpsons.S28E06.HDTV.x264-KILLERS
2016-11-07 01:57:17 Tartuffe.1925.1080p.BluRay.x264-USURY
2016-11-07 01:57:50 Twitches.2005.WS.HDTV.x264-REGRET
2016-11-07 01:58:06 Elementary.S05E05.720p.HDTV.X264-DIMENSION
2016-11-07 01:58:38 Bobs.Burgers.S07E04.720p.HDTV.x264-FLEET
2016-11-07 01:58:39 Bobs.Burgers.S07E04.720p.HDTV.x264-SVA
2016-11-07 01:59:19 Bobs.Burgers.S07E04.HDTV.x264-FLEET
2016-11-07 01:59:34 Heartland.CA.S10E06.720p.HDTV.x264-AVS
2016-11-07 02:00:05 Elementary.S05E05.HDTV.x264-LOL
2016-11-07 02:00:23 Twitches.2005.iNTERNAL.720p.HDTV.x264-REGRET
2016-11-07 02:00:31 Heartland.CA.S10E06.HDTV.x264-FLEET
2016-11-07 02:01:12 Designated.Survivor.S01E01.FRENCH.WEBRip.x264-AMB3R
2016-11-07 02:02:05 Twitches.2005.LATiN.SPANiSH.720p.HDTV.x264-REGRET
2016-11-07 02:03:26 Twitches.2005.LATiN.SPANiSH.HDTV.x264-REGRET
2016-11-07 02:03:27 The.Last.Laugh.1924.1080p.BluRay.x264-USURY
2016-11-07 02:03:40 La.Famiglia.S01E06.DUTCH.1080p.HDTV.x264-DiFFERENT
2016-11-07 02:05:10 Medium.S01E01.720p.HDTV.x264-REGRET
2016-11-07 02:06:01 Medium.S01E02.720p.HDTV.x264-REGRET
2016-11-07 02:06:27 DJ_Q-Kiss_Fresh-DAB-11-05-2016-z0ne_int
2016-11-07 02:06:56 Medium.S01E03.720p.HDTV.x264-REGRET
2016-11-07 02:07:51 Medium.S01E04.720p.HDTV.x264-REGRET
2016-11-07 02:08:46 Medium.S01E05.720p.HDTV.x264-REGRET
2016-11-07 02:09:23 Z.Nation.S03E07.REPACK.1080p.WEB.x264-HEAT
2016-11-07 02:09:42 Medium.S02E03.720p.HDTV.x264-REGRET
2016-11-07 02:09:45 Quantico.S02E06.HDTV.x264-LOL
2016-11-07 02:10:37 Medium.S02E04.720p.HDTV.x264-REGRET
2016-11-07 02:11:32 Medium.S02E05.720p.HDTV.x264-REGRET
2016-11-07 02:11:33 Quantico.S02E06.720p.HDTV.X264-DIMENSION
2016-11-07 02:12:26 Medium.S02E06.720p.HDTV.x264-REGRET
2016-11-07 02:13:22 Medium.S02E07.720p.HDTV.x264-REGRET
2016-11-07 02:14:17 Medium.S02E08.iNTERNAL.720p.HDTV.x264-REGRET
2016-11-07 02:24:22 The.Walking.Dead.S06E03.FRENCH.720p.BluRay.x264.DTS-AiRTV
2016-11-07 02:28:33 The.Walking.Dead.S06E03.MULTi.1080p.BluRay.x264-AiRTV
2016-11-07 02:29:18 ArchAngel.Anal.Warriors.3.XXX.720p.MP4-KTR
2016-11-07 02:32:05 The.Walking.Dead.S06E03.iNTERNAL.MULTi.BDRip.x264-Lowcost
2016-11-07 02:33:20 Elementary.S05E05.1080p.HDTV.X264-DIMENSION
2016-11-07 02:34:46 Zoo.S02E11.FRENCH.1080p.HDTV.x264-Ryotox
2016-11-07 02:34:47 Ash.vs.Evil.Dead.S02E06.1080p.HDTV.x264-BRISK
2016-11-07 02:35:54 Zoo.S02E12.FRENCH.1080p.HDTV.x264-Ryotox
2016-11-07 02:37:14 Black.Mirror.S02E01.iNTERNAL.FRENCH.720p.WEBRip.x264-AMB3R
2016-11-07 02:37:35 Black.Mirror.S02E02.iNTERNAL.FRENCH.720p.WEBRip.x264-AMB3R
2016-11-07 02:37:49 Black.Mirror.S02E03.FiNAL.iNTERNAL.FRENCH.720p.WEBRip.x264-AMB3R
2016-11-07 02:38:31 Supernatural.S09E19.FRENCH.1080p.HDTV.x264-Ryotox
2016-11-07 02:41:35 ArchAngel.Anal.Warriors.3.XXX.1080p.MP4-KTR
2016-11-07 02:42:15 Supernatural.S09E20.FRENCH.1080p.HDTV.x264-Ryotox
2016-11-07 02:54:28 Marvels.Agents.of.S.H.I.E.L.D.S03E05.RERiP.FRENCH.1080p.HDTV.x264-Ryotox
2016-11-07 02:55:05 NCIS.Los.Angeles.S08E07.720p.HDTV.X264-DIMENSION
2016-11-07 02:56:05 NCIS.Los.Angeles.S08E07.HDTV.x264-LOL
2016-11-07 02:58:50 Son.of.Zorn.S01E06.720p.HDTV.x264-FLEET
2016-11-07 02:58:54 Son.of.Zorn.S01E06.720p.HDTV.x264-SVA
2016-11-07 02:59:16 Son.of.Zorn.S01E06.HDTV.x264-FLEET
2016-11-07 02:59:32 Once.Upon.a.Time.S06E07.720p.HDTV.x264-AVS
2016-11-07 03:00:27 Once.Upon.a.Time.S06E07.HDTV.x264-FLEET
2016-11-07 03:01:34 Blunt.Talk.S02E06.1080p.HDTV.x264-BRISK
2016-11-07 03:05:55 The.Real.Housewives.of.Atlanta.S09E01.720p.HDTV.x264-FIRST
2016-11-07 03:06:09 The.Real.Housewives.of.Atlanta.S09E01.HDTV.x264-ALT
2016-11-07 03:24:19 Imagineer.Systems.Mocha.Pro.v5.1.1.MACOSX-AMPED
2016-11-07 03:24:34 Imagineer.Systems.Mocha.Pro.v5.1.1.REDHAT.LINUX.X64-AMPED
2016-11-07 03:24:46 Imagineer.Systems.Mocha.Pro.v5.1.1.X64-AMPED
2016-11-07 03:27:15 Family.Guy.S15E05.720p.HDTV.x264-AVS
2016-11-07 03:28:05 NCIS.Los.Angeles.S08E07.1080p.HDTV.X264-DIMENSION
2016-11-07 03:28:52 The.Simpsons.S28E06.1080p.HDTV.x264-CROOKS
2016-11-07 03:33:56 PremiumSoft.Navicat.Data.Modeler.Essentials.v2.1.10.Incl.Keygen.and.Patch-AMPED
2016-11-07 03:34:08 PremiumSoft.Navicat.Data.Modeler.Essentials.v2.1.10.X64.Incl.Keygen.and.Patch-AMPED
2016-11-07 03:34:21 PremiumSoft.Navicat.Data.Modeler.v2.1.10.Incl.Keygen.and.Patch-AMPED
2016-11-07 03:34:34 PremiumSoft.Navicat.Data.Modeler.v2.1.10.X64.Incl.Keygen.and.Patch-AMPED
2016-11-07 03:34:46 PremiumSoft.Navicat.Essentials.for.MariaDB.v11.2.13.Incl.Keygen.and.Patch-AMPED
2016-11-07 03:34:57 PremiumSoft.Navicat.Essentials.for.MariaDB.v11.2.13.X64.Incl.Keygen.and.Patch-AMPED
2016-11-07 03:35:10 PremiumSoft.Navicat.Essentials.for.MySQL.v11.2.13.Incl.Keygen.and.Patch-AMPED
2016-11-07 03:35:21 PremiumSoft.Navicat.Essentials.for.MySQL.v11.2.13.X64.Incl.Keygen.and.Patch-AMPED
2016-11-07 03:35:33 PremiumSoft.Navicat.Essentials.for.Oracle.v11.2.13.Incl.Keygen.and.Patch-AMPED
2016-11-07 03:35:46 PremiumSoft.Navicat.Essentials.for.Oracle.v11.2.13.X64.Incl.Keygen.and.Patch-AMPED
2016-11-07 03:35:58 PremiumSoft.Navicat.Essentials.for.PostgreSQL.v11.2.13.Incl.Keygen.and.Patch-AMPED
2016-11-07 03:36:10 PremiumSoft.Navicat.Essentials.for.PostgreSQL.v11.2.13.X64.Incl.Keygen.and.Patch-AMPED
2016-11-07 03:36:22 PremiumSoft.Navicat.Essentials.for.SQL.Server.v11.2.13.Incl.Keygen.and.Patch-AMPED
2016-11-07 03:36:34 PremiumSoft.Navicat.Essentials.for.SQL.Server.v11.2.13.X64.Incl.Keygen.and.Patch-AMPED
2016-11-07 03:36:46 PremiumSoft.Navicat.Essentials.for.SQLite.v11.2.13.Incl.Keygen.and.Patch-AMPED
2016-11-07 03:36:58 PremiumSoft.Navicat.Essentials.for.SQLite.v11.2.13.X64.Incl.Keygen.and.Patch-AMPED
2016-11-07 03:37:10 PremiumSoft.Navicat.for.MariaDB.Enterprise.Edition.v11.2.13.Incl.Keygen.and.Patch-AMPED
2016-11-07 03:37:22 PremiumSoft.Navicat.for.MariaDB.Enterprise.Edition.v11.2.13.X64.Incl.Keygen.and.Patch-AMPED
2016-11-07 03:37:34 PremiumSoft.Navicat.for.MySQL.Enterprise.Edition.v11.2.13.Incl.Keygen.and.Patch-AMPED
2016-11-07 03:37:46 PremiumSoft.Navicat.for.MySQL.Enterprise.Edition.v11.2.13.X64.Incl.Keygen.and.Patch-AMPED
2016-11-07 03:37:58 PremiumSoft.Navicat.for.Oracle.Enterprise.Edition.v11.2.13.Incl.Keygen.and.Patch-AMPED
2016-11-07 03:38:10 PremiumSoft.Navicat.for.Oracle.Enterprise.Edition.v11.2.13.X64.Incl.Keygen.and.Patch-AMPED
2016-11-07 03:38:23 PremiumSoft.Navicat.for.PostgreSQL.Enterprise.Edition.v11.2.13.Incl.Keygen.and.Patch-AMPED
2016-11-07 03:38:35 PremiumSoft.Navicat.for.PostgreSQL.Enterprise.Edition.v11.2.13.X64.Incl.Keygen.and.Patch-AMPED
2016-11-07 03:38:47 PremiumSoft.Navicat.for.SQL.Server.Enterprise.Edition.v11.2.13.Incl.Keygen.and.Patch-AMPED
2016-11-07 03:39:00 PremiumSoft.Navicat.for.SQL.Server.Enterprise.Edition.v11.2.13.X64.Incl.Keygen.and.Patch-AMPED
2016-11-07 03:39:12 PremiumSoft.Navicat.for.SQLite.Enterprise.Edition.v11.2.13.Incl.Keygen.and.Patch-AMPED
2016-11-07 03:39:26 PremiumSoft.Navicat.for.SQLite.Enterprise.Edition.v11.2.13.X64.Incl.Keygen.and.Patch-AMPED
2016-11-07 03:39:38 PremiumSoft.Navicat.Premium.Edition.v11.2.13.Incl.Keygen.and.Patch-AMPED
2016-11-07 03:39:50 PremiumSoft.Navicat.Premium.Edition.v11.2.13.X64.Incl.Keygen.and.Patch-AMPED
2016-11-07 03:40:02 PremiumSoft.Navicat.Report.Viewer.v3.2.7.Incl.Keygen.and.Patch-AMPED
2016-11-07 03:40:14 PremiumSoft.Navicat.Report.Viewer.v3.2.7.X64.Incl.Keygen.and.Patch-AMPED
2016-11-07 03:48:01 Aquarius.US.S02E10.FRENCH.1080p.HDTV.x264-Ryotox
2016-11-07 03:49:07 Outcast.S01E07.FRENCH.1080p.HDTV.x264-Ryotox
2016-11-07 03:52:38 Memphis_May_Fire-This_Light_I_Hold-CD-FLAC-2016-FORSAKEN
2016-11-07 03:54:30 Wovenwar-Honor_Is_Dead-CD-FLAC-2016-FORSAKEN
2016-11-07 03:54:38 Girl.In.Woods.2016.DVDRip.x264-SPRiNTER
2016-11-07 03:55:06 Shameless.US.S07E06.HDTV.x264-LOL
2016-11-07 03:55:07 Madam.Secretary.S03E05.720p.HDTV.X264-DIMENSION
2016-11-07 03:55:13 Shameless.US.S07E06.1080p.HDTV.X264-DIMENSION
2016-11-07 03:55:44 Adaline.2015.DVDRip.x264-SPRiNTER
2016-11-07 03:56:05 Shameless.US.S07E06.720p.HDTV.X264-DIMENSION
2016-11-07 03:56:07 Madam.Secretary.S03E05.HDTV.x264-LOL
2016-11-07 03:57:15 Untold.Stories.of.the.E.R.S11E02.Old.School.Medicine.HDTV.x264-CRiMSON
2016-11-07 03:57:31 Outcast.S01E08.FRENCH.1080p.HDTV.x264-Ryotox
2016-11-07 03:59:15 Westworld.S01E06.720p.HDTV.x264-FLEET
2016-11-07 03:59:16 BTOB-New_Men-WEB-KR-2016-TosK
2016-11-07 03:59:19 Westworld.S01E06.720p.HDTV.x264-AVS
2016-11-07 03:59:22 The.Last.Man.On.Earth.S03E05.720p.HDTV.x264-AVS
2016-11-07 03:59:23 Secrets.and.Lies.US.S02E06.720p.HDTV.x264-AVS
2016-11-07 03:59:34 Secrets.and.Lies.US.S02E06.720p.HDTV.x264-FLEET
2016-11-07 03:59:45 This.Life.CA.S02E05.720p.HDTV.x264-FLEET
2016-11-07 03:59:57 The.Last.Man.On.Earth.S03E05.HDTV.x264-FLEET
2016-11-07 04:00:00 Mamamoo-Memory-WEB-KR-2016-TosK
2016-11-07 04:00:19 This.Life.CA.S02E05.HDTV.x264-FLEET
2016-11-07 04:00:26 Westworld.S01E06.HDTV.x264-FLEET
2016-11-07 04:00:30 B.A.P-Noir-WEB-KR-2016-TosK
2016-11-07 04:00:35 Secrets.and.Lies.US.S02E06.HDTV.x264-FLEET
2016-11-07 04:00:41 The.Walking.Dead.S07E03.720p.HDTV.x264-AVS
2016-11-07 04:01:59 The.Walking.Dead.S07E03.HDTV.x264-FLEET
2016-11-07 04:04:29 Aquarius.US.S02E11.FRENCH.1080p.HDTV.x264-Ryotox
2016-11-07 04:10:45 Married.to.Medicine.S04E01.720p.HDTV.x264-FIRST
2016-11-07 04:11:02 Married.to.Medicine.S04E01.HDTV.x264-ALT
2016-11-07 04:11:23 Marvels.Agents.of.S.H.I.E.L.D.S03E06.FRENCH.1080p.HDTV.x264-Ryotox
2016-11-07 04:14:18 Diouff-Diouff-WEB-NL-2016-AZF
2016-11-07 04:14:39 Westworld.S01E06.DIRFIX.PROPER.720p.HDTV.x264-AVS
2016-11-07 04:14:51 It_It_Anita-AGAAIIN-WEB-2016-AZF
2016-11-07 04:14:57 Frenna-Geen_Oog_Dichtgedaan-WEB-NL-2016-AZF
2016-11-07 04:15:08 Lavinia_Meijer-The_Glass_Effect_(The_Music_of_Philip_Glass_And_Others)-WEB-2016-AZF
2016-11-07 04:15:26 LENFANT-fear_of-WEB-2016-AZF
2016-11-07 04:15:56 Teske-Opnieuw-WEB-NL-2016-AZF
2016-11-07 04:19:25 VA_-_Hits_2016_Vol._2-2016-ATRium
2016-11-07 04:20:06 VA_-_Hits_2016_Vol._3-(Teta_Rec.)-2016-ATRium
2016-11-07 04:22:06 Madam.Secretary.S03E05.1080p.HDTV.X264-DIMENSION
2016-11-07 04:26:45 Alvinnn.and.the.Chipmunks.S02E19a.720p.HDTV.x264-W4F
2016-11-07 04:29:12 Alvinnn.and.the.Chipmunks.S02E19a.HDTV.x264-W4F
2016-11-07 04:29:34 Divorce.S01E05.720p.HDTV.x264-FLEET
2016-11-07 04:29:44 Jane.The.Virgin.S02E19.FRENCH.1080p.HDTV.x264-Ryotox
2016-11-07 04:30:15 Divorce.S01E05.HDTV.x264-FLEET
2016-11-07 04:30:50 NFL.2016.11.06.Steelers.vs.Ravens.720p.HDTV.x264-BAJSKORV
2016-11-07 04:32:26 Dead.Silent.S01E02.PROPER.720p.HDTV.x264-W4F
2016-11-07 04:43:10 FxpHD.History.of.Visual.Effects-TUTOR
2016-11-07 04:45:48 Frontier.2016.S01E01.720p.HDTV.x264-KILLERS
2016-11-07 04:48:16 Dead.Silent.S01E02.PROPER.HDTV.x264-W4F
2016-11-07 04:49:37 Get.Blake.S01E24a.S01E06a.720p.HDTV.x264-W4F
2016-11-07 04:50:23 Get.Blake.S01E24a.S01E06a.HDTV.x264-W4F
2016-11-07 04:53:08 Homicide.Hunter.S06E10.720p.HDTV.x264-W4F
2016-11-07 04:53:41 Homicide.Hunter.S06E10.HDTV.x264-W4F
2016-11-07 04:55:01 Frontier.2016.S01E01.HDTV.x264-KILLERS
2016-11-07 04:55:48 Keeping.Up.With.the.Kardashians.S12E19.Lord.of.the.Cougars.HDTV.x264-CRiMSON
2016-11-07 04:56:19 Hunter.X.Hunter.2011.S01E26.DUBBED.720p.HDTV.x264-W4F
2016-11-07 04:56:22 Max_Ruby-Diesel_House-(INTRICATE184)-WEB-2016-SPANK
2016-11-07 04:56:46 Hunter.X.Hunter.2011.S01E26.DUBBED.HDTV.x264-W4F
2016-11-07 04:57:25 JoJos.Bizarre.Adventure.S01E03.DUBBED.720p.HDTV.x264-W4F
2016-11-07 04:58:02 Masters.of.Sex.S04E09.720p.HDTV.x264-SVA
2016-11-07 04:58:52 JoJos.Bizarre.Adventure.S01E03.DUBBED.HDTV.x264-W4F
2016-11-07 04:59:07 Mivase-Wait_For_You-(INTRICATE182)-WEB-2016-SPANK
2016-11-07 04:59:35 Masters.of.Sex.S04E09.HDTV.x264-FLEET
2016-11-07 05:00:13 K.C.Undercover.S02E20.720p.HDTV.x264-W4F
2016-11-07 05:00:24 Insecure.S01E05.720p.HDTV.x264-SVA
2016-11-07 05:00:39 Eyewitness.S01E04.720p.HDTV.x264-FLEET
2016-11-07 05:00:40 Eyewitness.S01E04.720p.HDTV.x264-SVA
2016-11-07 05:00:53 K.C.Undercover.S02E20.HDTV.x264-W4F
2016-11-07 05:01:09 Insecure.S01E05.HDTV.x264-FLEET
2016-11-07 05:01:50 Eyewitness.S01E04.HDTV.x264-FLEET
2016-11-07 05:03:45 Going.To.America.2014.DVDRip.x264-SPRiNTER
2016-11-07 05:03:53 Judge.Archer.2012.DVDRip.x264-SPRiNTER
2016-11-07 05:04:08 Graves.S01E04.720p.HDTV.x264-FLEET
2016-11-07 05:04:43 Graves.S01E04.HDTV.x264-FLEET
2016-11-07 05:07:09 Talking.Dead.S06E03.720p.HDTV.x264-FIRST
2016-11-07 05:07:26 Married.With.Secrets.S01E02.720p.HDTV.x264-W4F
2016-11-07 05:08:19 Talking.Dead.S06E03.HDTV.x264-ALT
2016-11-07 05:08:25 Married.With.Secrets.S01E02.HDTV.x264-W4F
2016-11-07 05:10:47 Marvels.Avengers-Ultron.Revolution.S03E20.720p.HDTV.x264-W4F
2016-11-07 05:12:32 Gutshot.Straight.2014.NTSC.MULTi.DVDR-FUTiL
2016-11-07 05:13:29 Westworld.S01E06.PROPER.HDTV.x264-KILLERS
2016-11-07 05:13:39 NFL.2016.11.06.Eagles.vs.Giants.720p.HDTV.x264-BAJSKORV
2016-11-07 05:13:47 TakeVan.16.11.07.Carly.Squirting.Tour.Guide.XXX.720p.MP4-KTR
2016-11-07 05:14:08 Marvels.Avengers-Ultron.Revolution.S03E20.HDTV.x264-W4F
2016-11-07 05:15:24 Miserable_Faith-Today_Youth-WEB-CPOP-2016-TosK
2016-11-07 05:15:32 Mobile.Suit.Gundam.Iron-Blooded.Orphans.S01E20.DUBBED.720p.HDTV.x264-W4F
2016-11-07 05:15:51 Mobile.Suit.Gundam.Iron-Blooded.Orphans.S01E20.DUBBED.HDTV.x264-W4F
2016-11-07 05:16:17 Family.Guy.S15E05.HDTV.x264-FLEET
2016-11-07 05:18:33 Naruto.Shippuden.S06E21.DUBBED.720p.HDTV.x264-W4F
2016-11-07 05:20:28 This.is.High.School.S01E06.720p.HDTV.x264-CROOKS
2016-11-07 05:20:34 This.is.High.School.S01E06.HDTV.x264-CROOKS
2016-11-07 05:25:10 Naruto.Shippuden.S06E21.DUBBED.HDTV.x264-W4F
2016-11-07 05:33:56 Masters.of.Sex.S04E09.PROPER.720p.HDTV.x264-FLEET
2016-11-07 05:36:12 Masters.of.Sex.S04E09.REPACK.HDTV.x264-FLEET
2016-11-07 05:39:34 Sober-Torcidos-1997-NXL
2016-11-07 05:47:06 Sobredosis_-_Sangre_Joven-ES-1985-MCA_INT
2016-11-07 05:48:23 Berlin.Station.S01E04.720p.HDTV.x264-FLEET
2016-11-07 05:49:10 AllInternal.16.11.07.Katrin.Tequila.XXX.1080p.MP4-KTR
2016-11-07 05:49:40 Berlin.Station.S01E04.HDTV.x264-FLEET
2016-11-07 05:50:56 GirlfriendsFilms.Lesbian.Tutors.2.XXX.720p.MP4-KTR
2016-11-07 05:57:28 GirlfriendsFilms.Lesbian.Tutors.2.XXX.1080p.MP4-KTR
2016-11-07 05:58:47 One.Piece.E367.DUBBED.720p.HDTV.x264-W4F
2016-11-07 05:59:19 One.Piece.E367.DUBBED.HDTV.x264-W4F
2016-11-07 06:02:12 Pair.of.Kings.S02E23.720p.HDTV.x264-W4F
2016-11-07 06:02:34 RealityJunkies.Couples.Seeking.Teens.21.Cumshots.XXX.720p.MP4-KTR
2016-11-07 06:02:47 Pair.of.Kings.S02E23.HDTV.x264-W4F
2016-11-07 06:02:54 RealityJunkies.Couples.Seeking.Teens.21.Cumshots.XXX.1080p.MP4-KTR
2016-11-07 06:03:38 Pig.Goat.Banana.Cricket.S01E25.720p.HDTV.x264-W4F
2016-11-07 06:04:09 Pig.Goat.Banana.Cricket.S01E25.HDTV.x264-W4F
2016-11-07 06:05:01 Power.Rangers.Dino.Super.Charge.S23E19.720p.HDTV.x264-W4F
2016-11-07 06:05:39 Power.Rangers.Dino.Super.Charge.S23E19.HDTV.x264-W4F
2016-11-07 06:06:31 Teenage.Mutant.Ninja.Turtles.2012.S04E20.720p.HDTV.x264-W4F
2016-11-07 06:06:41 SweetheartVideo.Mother.Lovers.Society.16.BTS.XXX.720p.MP4-KTR
2016-11-07 06:07:19 Teenage.Mutant.Ninja.Turtles.2012.S04E20.HDTV.x264-W4F
2016-11-07 06:07:30 SweetheartVideo.Mother.Lovers.Society.16.BTS.XXX.1080p.MP4-KTR
2016-11-07 06:08:00 Yo-Kai.Watch.S01E46.DUBBED.720p.HDTV.x264-W4F
2016-11-07 06:08:03 1000Facials.16.11.07.Zoey.Monroe.XXX.1080p.MP4-KTR
2016-11-07 06:08:45 Yo-Kai.Watch.S01E46.DUBBED.HDTV.x264-W4F
2016-11-07 06:09:32 Yu-Gi-Oh.ARC-V.S01E23.DUBBED.720p.HDTV.x264-W4F
2016-11-07 06:09:37 TeensLikeItBig.16.11.07.Megan.Sage.Shake.Your.Money.Maker.XXX.1080p.MP4-KTR
2016-11-07 06:09:58 Yu-Gi-Oh.ARC-V.S01E23.DUBBED.HDTV.x264-W4F
2016-11-07 06:11:01 Yu-Gi-Oh.ARC-V.S01E24.DUBBED.720p.HDTV.x264-W4F
2016-11-07 06:11:31 RealWifeStories.16.11.07.August.Ames.My.No.Good.Brother-In-Law.XXX.1080p.MP4-KTR
2016-11-07 06:11:47 Yu-Gi-Oh.ARC-V.S01E24.DUBBED.HDTV.x264-W4F
2016-11-07 06:12:57 The.Powerpuff.Girls.2016.S01E30.720p.HDTV.x264-W4F
2016-11-07 06:13:02 1By-Day.16.11.07.Stasy.Riviera.XXX.1080p.MP4-KTR
2016-11-07 06:13:47 AllGirlMassage.16.11.07.Celeste.Star.And.Angela.Sommers.Newly.Wed.And.Alone.XXX.1080p.MP4-KTR
2016-11-07 06:13:48 Bar.Rescue.S05E11.720p.HDTV.x264-FIRST
2016-11-07 06:14:30 GirlsWay.16.11.07.Abby.Cross.And.Ryan.Ryans.Secretary.Day.XXX.1080p.MP4-KTR
2016-11-07 06:14:48 Bar.Rescue.S05E11.HDTV.x264-ALT
2016-11-07 06:15:05 The.Powerpuff.Girls.2016.S01E31.720p.HDTV.x264-W4F
2016-11-07 06:15:55 OnlyBlowJob.16.11.07.Haley.Hill.XXX.1080p.MP4-KTR
2016-11-07 06:16:06 The.Powerpuff.Girls.2016.S01E32.720p.HDTV.x264-W4F
2016-11-07 06:16:27 The.Powerpuff.Girls.2016.S01E33.720p.HDTV.x264-W4F
2016-11-07 06:17:12 The.Powerpuff.Girls.2016.S01E30.HDTV.x264-W4F
2016-11-07 06:17:33 The.Powerpuff.Girls.2016.S01E31.HDTV.x264-W4F
2016-11-07 06:17:52 The.Powerpuff.Girls.2016.S01E32.HDTV.x264-W4F
2016-11-07 06:18:13 The.Powerpuff.Girls.2016.S01E33.HDTV.x264-W4F
2016-11-07 06:19:03 Your.Pretty.Face.Is.Going.To.Hell.S03E03.REPACK.720p.HDTV.x264-W4F
2016-11-07 06:19:10 Haunted.Case.Files.S01E11.The.Doppleganger.iNTERNAL.720p.HDTV.x264-DHD
2016-11-07 06:20:03 Your.Pretty.Face.Is.Going.To.Hell.S03E03.REPACK.HDTV.x264-W4F
2016-11-07 06:23:15 DogHouseDigital.Creampie.Cuties.4.XXX.720p.MP4-KTR
2016-11-07 06:25:40 DogHouseDigital.Creampie.Cuties.4.XXX.1080p.MP4-KTR
2016-11-07 06:32:21 GloryHole.16.11.07.Summer.Day.XXX.1080p.MP4-KTR
2016-11-07 06:32:51 Dream.Corp.LLC.S01E03.HDTV.x264-W4F
2016-11-07 06:33:44 NewSensations.16.11.07.Bree.Daniels.XXX.1080p.MP4-KTR
2016-11-07 06:35:30 WAGS.Miami.S01E06.Put.a.Ring.on.It.HDTV.x264-CRiMSON
2016-11-07 06:36:33 Comic.Book.Men.S06E03.720p.HDTV.x264-FIRST
2016-11-07 06:36:35 VIPissy.16.11.07.Doroty.And.Foxie.T.XXX.1080p.MP4-KTR
2016-11-07 06:37:04 Comic.Book.Men.S06E03.HDTV.x264-ALT
2016-11-07 06:38:43 VIPissy.16.11.07.Doroty.And.Foxie.T.XXX.2160p.MP4-KTR
2016-11-07 06:42:28 Dream.Corp.LLC.S01E03.720p.HDTV.x264-W4F
2016-11-07 06:44:20 NFL.2016.11.06.Broncos.vs.Raiders.720p.HDTV.x264-BAJSKORV
2016-11-07 06:45:46 Fussball.1.Bundesliga.2016-2017.10.Spieltag.Eintracht.Frankfurt.vs.1.FC.Koeln.GERMAN.720p.HDTV.x264-SAPH1R
2016-11-07 06:45:52 EvilAngel.Micks.Anal.Teens.4.XXX.720p.MP4-KTR
2016-11-07 06:49:39 Fussball.1.Bundesliga.2016-2017.10.Spieltag.Eintracht.Frankfurt.vs.1.FC.Koeln.GERMAN.WS.HDTVRip.x264-SAPH1R
2016-11-07 06:54:59 Babes.com_16.11.07.Luna.Corazon.And.Rina.Ellis.Let.It.Out.XXX.IMAGESET-FuGLi
2016-11-07 06:55:27 EvilAngel.Micks.Anal.Teens.4.XXX.1080p.MP4-KTR
2016-11-07 06:56:23 WhenGirlsPlay.com_16.11.07.Adriana.Chechik.And.Valentina.Nappi.When.Girls.Play.Birthday.XXX.IMAGESET-FuGLi
2016-11-07 06:56:52 Fussball.1.Bundesliga.2016-2017.10.Spieltag.RB.Leipzig.vs.1.FSV.Mainz.05.GERMAN.720p.HDTV.x264-SAPH1R
2016-11-07 06:57:18 Une.Ambition.Intime.2016.11.06.FRENCH.720p.HDTV.x264-SH0W
2016-11-07 06:57:23 Il.Corriere.Della.Sera.11.07.2016.iTALiAN.RETAiL.eBook-DiVER
2016-11-07 06:59:04 Edgar.Allan.Poes.Mystery.Theatre.2016.DSR.x264-W4F
2016-11-07 06:59:06 Une.Ambition.Intime.2016.11.06.FRENCH.HDTV.x264-SH0W
2016-11-07 06:59:31 Fussball.1.Bundesliga.2016-2017.10.Spieltag.RB.Leipzig.vs.1.FSV.Mainz.05.GERMAN.WS.HDTVRip.x264-SAPH1R
2016-11-07 06:59:57 The.Walking.Dead.S02E01.SPANiSH.720p.BLURAY.X264-LPH
2016-11-07 07:00:19 The.Walking.Dead.S02E01.SPANiSH.BDRIP.X264-LPH
2016-11-07 07:01:31 Enquete.Exclusive.Attentats.Du.13.Novembre.Qui.Sont.Ces.Terroristes.Qui.Ont.Commis.L.Impensable.DOC.FRENCH.720p.HDTV.x264-SH0W
2016-11-07 07:06:43 PlayboyPlus.16.11.07.Chandler.South.What.Men.Want.XXX.1080p.MP4-KTR
2016-11-07 07:07:25 Secrets.of.the.Dead.S16E02.Graveyard.of.the.Giant.Beasts.HDTV.x264-W4F
2016-11-07 07:07:47 Enquete.Exclusive.Attentats.Du.13.Novembre.Qui.Sont.Ces.Terroristes.Qui.Ont.Commis.L.Impensable.DOC.FRENCH.HDTV.x264-SH0W
2016-11-07 07:14:59 ATKGalleria.16.11.07.Alexa.Nova.Masturbation.XXX.1080p.MP4-KTR
2016-11-07 07:15:43 Paraiso.2013.DVDRip.x264-SPRiNTER
2016-11-07 07:15:47 ATKGalleria.16.11.07.Alexa.Nova.Toys.XXX.1080p.MP4-KTR
2016-11-07 07:16:12 The.Crown.S01E04.720p.WEBRip.X264-DEFLATE
2016-11-07 07:16:18 ATKGalleria.16.11.07.Karlie.Brooks.Toys.XXX.1080p.MP4-KTR
2016-11-07 07:17:04 ATKGalleria.16.11.07.Lucie.Kline.Toys.XXX.1080p.MP4-KTR
2016-11-07 07:17:45 ATKGalleria.16.11.07.Samantha.Rone.Masturbation.XXX.1080p.MP4-KTR
2016-11-07 07:18:30 ATKGalleria.16.11.07.Skylar.Madison.Masturbation.1.XXX.1080p.MP4-KTR
2016-11-07 07:19:05 ATKGalleria.16.11.07.Skylar.Madison.Masturbation.2.XXX.1080p.MP4-KTR
2016-11-07 07:22:57 EvilAngel.ButtSex.Cuties.2.XXX.720p.MP4-KTR
2016-11-07 07:23:24 Schematic-Prophecy-DAB-11-06-2016-z0ne
2016-11-07 07:24:00 Dead_End_Finland-Stain_Of_Disgrace-WEB-2011-ENTiTLED
2016-11-07 07:25:18 De-Vision-13_Extended-WEB-2016-ENTiTLED
2016-11-07 07:25:37 Dominik_Eulberg-Falkenauge_Katzengold_And_Taubenblut-EP-WEB-2016-ENTiTLED
2016-11-07 07:26:13 Hubert_Kah-RockArt-WEB-DE-2016-ENTiTLED
2016-11-07 07:26:15 Sebastian_Davidson-Freefallin-(ARCHLL044)-WEB-2016-UKHx
2016-11-07 07:28:23 Fully_Charged-Release_Me-(MM238)-WEB-2016-UKHx
2016-11-07 07:30:22 EvilAngel.ButtSex.Cuties.2.XXX.1080p.MP4-KTR
2016-11-07 07:33:22 Boy_Kiss_Girl-Ocean_(Syneptic_Remix)-(TBM176)-WEB-2016-UKHx
2016-11-07 07:35:45 La.Gazzetta.Dello.Sport.11.07.2016.iTALiAN.RETAiL.eBook-DiVER
2016-11-07 07:42:14 ATKExotics.16.11.07.Daya.Knight.Masturbation.XXX.1080p.MP4-KTR
2016-11-07 07:42:42 Solid_Base-Mirror_Mirror-(CDS)-(1995)-ATM
2016-11-07 07:42:50 Best.Of.Young.Filthy.Czech.Girls.XXX.2015.HDTV.720p.x264-SHDXXX
2016-11-07 07:42:55 ATKExotics.16.11.07.Rachel.Raxxx.Solo.XXX.1080p.MP4-KTR
2016-11-07 07:44:07 ATKGirlfriends.16.11.07.Gia.Paige.XXX.1080p.MP4-KTR
2016-11-07 07:45:44 ATKGirlfriends.16.11.07.Gia.Paige.XXX.2160p.MP4-KTR
2016-11-07 07:50:00 PlumperPass.16.11.07.Kamille.Amora.Pussy.Pounding.Bestie.XXX.1080p.MP4-KTR
2016-11-07 07:51:11 WickedPictures.Karma.XXX.720p.MP4-KTR
2016-11-07 07:51:30 Kevin.Hart.Presents.Hart.of.the.City.S01E06.Washington.DC.HDTV.x264-CRiMSON
2016-11-07 07:55:08 WickedPictures.Karma.XXX.1080p.MP4-KTR
2016-11-07 07:58:54 PornstarPlatinum.16.11.07.Courtney.Taylor.And.Puma.Swede.My.Fan.XXX.1080p.MP4-KTR
2016-11-07 07:59:41 Last.Week.Tonight.With.John.Oliver.S03E29.HDTV.x264-BATV
2016-11-07 08:00:35 Vikingane.S01E03.NORWEGiAN.720p.HDTV.x264-TvNORGE
2016-11-07 08:01:48 Seiern.Er.Vaar.S01E08.NORWEGiAN.720p.HDTV.x264-TvNORGE
2016-11-07 08:02:12 L.Equipe.07.Novembre.2016.FRENCH.RETAIL.eBook-PRESSECiTRON
2016-11-07 08:02:22 La.Libre.Belgique.07.Novembre.2016.FRENCH.RETAIL.eBook-PRESSECiTRON
2016-11-07 08:02:32 Le.Figaro.07.Novembre.2016.FRENCH.RETAIL.eBook-PRESSECiTRON
2016-11-07 08:02:42 Le.Parisien.07.novembre.2016.FRENCH.RETAIL.eBook-PRESSECiTRON
2016-11-07 08:02:53 Les.Echos.07.Novembre.2016.FRENCH.RETAIL.eBook-PRESSECiTRON
2016-11-07 08:03:05 Liberation.07.Novembre.2016.FRENCH.RETAIL.eBook-PRESSECiTRON
2016-11-07 08:04:49 Enemigo.Publico.S01E09.SPANiSH.HDTV.x264-BFN
2016-11-07 08:05:11 Enemigo.Publico.S01E09.SPANiSH.720p.HDTV.x264-BFN
2016-11-07 08:05:47 Anilos.16.11.07.Mari.Sensual.Pleasure.XXX.1080p.MP4-KTR
2016-11-07 08:06:32 Nubiles.16.11.07.Carolina.Sweets.Toy.Orgasm.XXX.1080p.MP4-KTR
2016-11-07 08:06:52 The.Walking.Dead.S07E03.1080p.WEB.h264-HEAT
2016-11-07 08:07:17 Nubiles.16.11.07.Chesley.Sun.Revealing.Dress.XXX.1080p.MP4-KTR
2016-11-07 08:10:12 Senkveld.S29E10.NORWEGiAN.720p.HDTV.x264-TvNORGE
2016-11-07 08:10:23 The.Stream.S01E11.NORWEGiAN.720p.HDTV.x264-TvNORGE
2016-11-07 08:20:37 Independence.Day.Wiederkehr.3D.2016.German.DL.1080p.BluRay.x264-BluRay3D
2016-11-07 08:23:34 Last.Week.Tonight.With.John.Oliver.S03E29.720p.HDTV.x264-BATV
2016-11-07 08:26:04 The.Crown.S01E05.720p.WEBRip.X264-DEFLATE
2016-11-07 08:37:01 Shameless.US.S07E04.SPANiSH.1080p.HDTV.x264-FERiCE
2016-11-07 08:39:20 The.Walking.Dead.S07E03.1080p.HDTV.X264-DIMENSION
2016-11-07 08:41:03 Westworld.S01E06.NLSUBBED.720p.HDTV.x264-iFH
2016-11-07 08:41:36 Zazie.Integrale.PAL.2016.FRENCH.DVD9.MDVDR-JUST
2016-11-07 08:42:01 TeenDreams.16.11.07.Gina.Gerson.XXX.1080p.MP4-VSEX
2016-11-07 08:44:45 Kevin.Hart.Presents.Hart.of.the.City.S01E06.Washington.DC.720p.HDTV.x264-CRiMSON
2016-11-07 08:45:01 Das.Talent.des.Genesis.Potini.2014.German.DL.1080p.BluRay.AVC-AVC4D
2016-11-07 09:03:06 Little.Russian.Whores.2.XXX.720p.WEBRip.MP4-VSEX
2016-11-07 09:04:45 JulesJordan.16.11.07.Teanna.Trump.XXX.1080p.MP4-KTR
2016-11-07 09:06:15 Little.Russian.Whores.2.XXX.1080p.WEBRip.MP4-VSEX
2016-11-07 09:06:29 JamesDeen.16.11.07.Ana.Foxx.XXX.1080p.MP4-KTR
2016-11-07 09:08:09 MyFirstSexTeacher.16.11.07.Sara.Jay.XXX.1080p.MP4-KTR
2016-11-07 09:13:28 MetArt.com.16.11.07.Callista.B.Keldie.XXX.IMAGESET-IEVA
2016-11-07 09:13:39 MetArt.com.16.11.07.Mango.A.Asnite.XXX.IMAGESET-IEVA
2016-11-07 09:13:49 MetArt.com.16.11.07.Mira.Lynn.Presenting.Mira.Lynn.XXX.IMAGESET-IEVA
2016-11-07 09:14:01 MetArt.com.16.11.07.Tirata.Pellie.XXX.IMAGESET-IEVA
2016-11-07 09:18:40 ChicasLoca.16.11.07.Lexy.Star.SPANISH.XXX.1080p.MP4-KTR
2016-11-07 09:19:43 HausfrauFicken.16.11.07.Ina.GERMAN.XXX.1080p.MP4-KTR
2016-11-07 09:21:32 LaCochonne.16.11.07.Emilie.FRENCH.XXX.1080p.MP4-KTR
2016-11-07 09:24:06 MyFirstSexTeacher.16.11.07.Sara.Jay.XXX.2160p.MP4-KTR
2016-11-07 09:27:23 Topp_Dogg-First_Street-WEB-KR-2016-TosK
2016-11-07 09:31:09 MyDirtyMaid.16.11.07.Marta.Lacroft.XXX.1080p.MP4-KTR
2016-11-07 09:33:40 Ajavaod.S08E10.EE.720p.HDTV.x264-EMX
2016-11-07 09:34:24 InTheCrack.E1219.Cleo.Vixen.XXX.1080p.MP4-KTR
2016-11-07 09:37:20 InTheCrack.E1219.Cleo.Vixen.XXX.2160p.MP4-KTR
2016-11-07 09:38:56 Kellapid.S01E05.EE.720p.WEB.x264-EMX
2016-11-07 09:39:35 Pissing.In.Action.26.XXX.720p.WEBRip.MP4-VSEX
2016-11-07 09:45:07 Meie.Aasta.Austraalias.S01E08.EE.PDTV.x264-EMX
2016-11-07 09:45:21 Best.Of.Young.Filthy.Czech.Girls.XXX.2015.HDTV.1080p.x264-SHDXXX
2016-11-07 09:45:57 Pissing.In.Action.26.XXX.1080p.WEBRip.MP4-VSEX
2016-11-07 09:50:49 Der.Winterprinz.Miras.magisches.Abenteuer.2015.German.1080p.BluRay.AVC-AVC4D
2016-11-07 09:53:57 Pealtnagija.S18E09.EE.720p.HDTV.x264-EMX
2016-11-07 09:56:36 Wave_Form-Empty_Bodies_EP-(BA086)-WEB-2016-wAx
2016-11-07 09:59:23 Exium-Reduction_Required-(NHEOMA018)-WEB-2016-wAx
2016-11-07 10:04:10 VA-Yellow_Suitcase-(7CLOUD411)-WEB-2016-wAx
2016-11-07 10:07:37 Family.Feud.NZ.S01E191.720p.HDTV.x264-FiHTV
2016-11-07 10:08:50 Family.Feud.NZ.S01E191.HDTV.x264-FiHTV
2016-11-07 10:10:14 Planet.Earth.II.S01E01.Islands.DiRFiX.HDTV.x264-PLUTONiUM
2016-11-07 10:11:13 The.Next.Great.Magician.S01E01.1080p.HDTV.x264-PLUTONiUM
2016-11-07 10:16:11 MTV.Europe.Music.Awards.2016.HDTV.x264-PLUTONiUM
2016-11-07 10:17:39 Independence.Day.Resurgence.3D.2016.MULTi.COMPLETE.BLURAY-GMB
2016-11-07 10:18:46 Video2Brain.XML.Grundlagen.GERMAN-EMERGE
2016-11-07 10:19:42 Home.And.Away.S29E186.720p.HDTV.x264-FiHTV
2016-11-07 10:19:53 MTV.Europe.Music.Awards.2016.720p.HDTV.x264-PLUTONiUM
2016-11-07 10:20:49 Urge.2016.MULTi.COMPLETE.BLURAY-MHT
2016-11-07 10:21:14 Home.And.Away.S29E186.HDTV.x264-FiHTV
2016-11-07 10:21:59 Centraal.Medisch.Centrum.S01E06.DUTCH.1080p.HDTV.x264-DiFFERENT
2016-11-07 10:29:39 VA-We_Love_Techno-(GTA0041)-WEB-2016-wAx
2016-11-07 10:30:48 MTV.Europe.Music.Awards.2016.1080p.HDTV.x264-PLUTONiUM
2016-11-07 10:31:13 Shortland.Street.S25E190.720p.HDTV.x264-FiHTV
2016-11-07 10:34:42 Shortland.Street.S25E190.HDTV.x264-FiHTV
2016-11-07 10:35:41 Match.Of.The.Day.Two.2016.11.06.720p.HDTV.x264-VERUM
2016-11-07 10:37:07 Meglerkampen.S01E19.NORWEGiAN.720p.HDTV.x264-TvNORGE
2016-11-07 10:38:06 Meglerkampen.S01E20.NORWEGiAN.720p.HDTV.x264-TvNORGE
2016-11-07 10:42:47 UFC.Fight.Night.98.1080p.HDTV.x264-VERUM
2016-11-07 10:49:46 Inigo_Kennedy-Surrender-Castles_In_The_Air-WEB-2016-BPM
2016-11-07 10:50:23 SCNTST-Thru_Infinity-WEB-2016-BPM
2016-11-07 10:51:01 Thorsteinssn-Academy_Of_Heroes-WEB-2016-BPM
2016-11-07 10:51:38 VA-10_Years_of_VIVa_MUSiC_Decadedance_Part_One-WEB-2016-BPM
2016-11-07 10:52:16 VA-Church_Volumes_003-WEB-2016-BPM
2016-11-07 10:52:25 Fair.Go.2016.11.07.720p.HDTV.x264-FiHTV
2016-11-07 10:52:55 VA-Deep_in_Tech_Vol_6-WEB-2016-BPM
2016-11-07 10:54:47 Fair.Go.2016.11.07.HDTV.x264-FiHTV
2016-11-07 11:06:00 Life.Flight.S02E08.720p.HDTV.x264-FiHTV
2016-11-07 11:08:55 Controversial.Loops.Destined.For.Success.2.MULTiFORMAT-MASCHiNE
2016-11-07 11:09:07 Controversial.Loops.Flammers.Vol.1.MULTiFORMAT-MASCHiNE
2016-11-07 11:09:19 Controversial.Loops.Presents.I.Am.The.Kingpin.WAV-MASCHiNE
2016-11-07 11:10:09 Die.Welt.03.November.2016.GERMAN.RETAiL.EBOOK-TIDINGS
2016-11-07 11:10:31 Life.Flight.S02E08.HDTV.x264-FiHTV
2016-11-07 11:11:30 Frankfurter.Allgemeine.Zeitung.03.November.2016.GERMAN.RETAiL.EBOOK-TIDINGS
2016-11-07 11:12:52 Handelsblatt.03.November.2016.GERMAN.RETAiL.EBOOK-TIDINGS
2016-11-07 11:13:51 Sueddeutsche.Zeitung.03.November.2016.GERMAN.RETAiL.EBOOK-TIDINGS
2016-11-07 11:14:35 Empire.2015.S03E03.SPANiSH.720p.HDTV.x264-FERiCE
2016-11-07 11:15:29 Westworld.S01E06.NLSUBBED.1080p.HDTV.x264-iFH
2016-11-07 11:18:46 Empire.2015.S03E03.SPANiSH.HDTV.x264-FERiCE
2016-11-07 11:18:53 Abel_Korzeniowski-Escape_From_Tomorrow_(Original_Motion_Picture_Score)-WEB-2013-TSX
2016-11-07 11:19:16 Abel_Korzeniowski-Penny_Dreadful_(Music_From_The_Showtime_Original_Series)-WEB-2014-TSX
2016-11-07 11:19:39 Abel_Korzeniowski-Romeo_and_Juliet-WEB-2013-TSX
2016-11-07 11:20:03 Sarah_Schachner-Call_of_Duty_Infinite_Warfare_(Original_Video_Game_Soundtrack)-WEB-2016-TSX
2016-11-07 11:21:24 Hollywood.Kills.1984.GERMAN.HDTVRiP.x264-CiHD
2016-11-07 11:24:32 Empire.2015.S03E03.SPANiSH.1080p.HDTV.x264-FERiCE
2016-11-07 11:25:13 C-Murder-The_Hits-WEB-2016-ENRAGED
2016-11-07 11:25:29 Canon-Loose_Canon_Vol_3-WEB-2016-ENRAGED
2016-11-07 11:25:46 Canon-Loose_Canon_Vol_3_(Instrumental)-WEB-2016-ENRAGED
2016-11-07 11:26:13 NASCAR.Camping.World.Truck.Series.2016.Texas_Roadhouse.200.Presented.By.Alpha.Energy.Solutions.Martinsville.Speedway.Highlights.German.dTV.x264-F1ANA
2016-11-07 11:27:25 The.Crown.S01E06.720p.WEBRip.X264-DEFLATE
2016-11-07 11:31:52 Theres.Something.About.Jessa.Rhodes.XXX.720P.WEBRIP.MP4-GUSH
2016-11-07 11:36:44 NASCAR.Camping.World.Truck.Series.2016.Texas.Roadhouse.200.Presented.By.Alpha.Energy.Solutions.Martinsville.Speedway.Highlights.German.dTV.x264.DIRFIX-F1ANA
2016-11-07 11:40:09 Lo_Thraxx-Show_Em-Single-WEB-2016-ENRAGED
2016-11-07 11:40:24 Lo_Thraxx-Smash_the_Gas-Single-WEB-2016-ENRAGED
2016-11-07 11:40:40 The_Outlawz-So_Much_Pain_(feat_Mike_Green)-Single-WEB-2016-ENRAGED
2016-11-07 11:44:01 Day.One.Audio.Levels.MULTiFORMAT-MASCHiNE
2016-11-07 11:44:12 Day.One.Audio.OVXO.MULTiFORMAT-MASCHiNE
2016-11-07 11:44:23 Engineering.Samples.Euphoric.Festival.House.Vol.1.MULTiFORMAT-MASCHiNE
2016-11-07 11:44:35 Engineering.Samples.Future.House.Tools.Vol.1.MULTiFORMAT-MASCHiNE
2016-11-07 11:44:47 Engineering.Samples.Mainstage.Anthems.MULTiFORMAT-MASCHiNE
2016-11-07 11:45:00 Engineering.Samples.Thrilling.FX.and.Transitions.WAV-MASCHiNE
2016-11-07 11:45:11 Engineering.Samples.Underground.Techno.Tools.Vol.1.WAV-MASCHiNE
2016-11-07 11:46:22 Aandenes.Makt.S12E08.NORWEGiAN.720p.HDTV.x264-TvNORGE
2016-11-07 11:56:36 Day.One.Audio.Let.It.Build.MULTiFORMAT-MASCHiNE
2016-11-07 11:56:47 Day.One.Audio.Her.Secret.MULTiFORMAT-MASCHiNE
2016-11-07 11:56:58 Day.One.Audio.Dickies.and.Chucks.Vol.2.MULTiFORMAT-MASCHiNE
2016-11-07 11:57:20 Controversial.Loops.Trap.Mercenaries.MULTiFORMAT-MASCHiNE
2016-11-07 12:02:23 Undercover.In.Nederland.S22E05.DUTCH.720p.HDTV.x264-iFH
2016-11-07 12:03:29 Urge.2016.iTALiAN.DTS.1080p.BluRay.x264-NTROPiC
2016-11-07 12:03:49 Westworld.S01E06.1080p.HDTV.x264-BATV
2016-11-07 12:04:30 Modul8-Infinity-(XBONE138)-WEB-2016-UKHx
2016-11-07 12:08:49 Eufeion-Badman_Rock-(CF030)-WEB-2016-UKHx
2016-11-07 12:09:37 DJ_P-Lu-Lose_Control-(DR074)-WEB-2016-UKHx
2016-11-07 12:11:06 DJ_Pedroh_-_Live_At_The_Oh_Oostende-(Topradio)-CABLE-05-10-2016-HB
2016-11-07 12:11:12 Buzzman_and_Summa_Jae_Ft_Verity-Skinny_Love-(FCORE010)-WEB-2016-UKHx
2016-11-07 12:13:02 Finnbarr-The_Path__Losing_My_Mind-(STM035)-WEB-2016-UKHx
2016-11-07 12:20:06 Designated.Survivor.S01E01.POLISH.1080p.WEBRip.x264-ProPLTV
2016-11-07 12:21:38 British.Gardens.In.Time.S01E01.DVDRip.x264-GHOULS
2016-11-07 12:22:24 British.Gardens.In.Time.S01E02.DVDRip.x264-GHOULS
2016-11-07 12:23:08 British.Gardens.In.Time.S01E03.DVDRip.x264-GHOULS
2016-11-07 12:23:13 British.Gardens.In.Time.S01E04.DVDRip.x264-GHOULS
2016-11-07 12:23:49 Shurikn-Ca_Defile_Feat_Demi_Portion-(WEB)-FR-2016-H5N1_iNT
2016-11-07 12:25:34 Maria.Konnikova.-.The.Confidence.Game.2016.Retail.EPUB.eBook-BitBook
2016-11-07 12:25:55 The.Crown.S01E01.POLISH.720p.WEBRip.x264-ProPLTV
2016-11-07 12:26:06 The.Fairmont.Press.-.Handbook.of.Energy.Engineering.2013.7th.Edition.Retail.eBook-BitBook
2016-11-07 12:26:37 Wiley-Blackwell.-.Energy.Audits.2011.Retail.eBook-BitBook
2016-11-07 12:27:08 Wiley.-.Building.Information.Modeling.2014.Retail.eBook-BitBook
2016-11-07 12:27:39 Wiley.-.Energy.and.Process.Optimization.for.the.Process.Industries.2013.Retail.eBook-BitBook
2016-11-07 12:28:11 Wiley.-.Heterogeneous.Networks.in.LTE-Advanced.2014.Retail.eBook-BitBook
2016-11-07 12:28:42 Wiley.-.Modeling.Design.and.Optimization.of.Net-Zero.Energy.Buildings.2015.Retail.eBook-BitBook
2016-11-07 12:29:13 Wiley.-.Net.Zero.Energy.Design.2012.Retail.eBook-BitBook
2016-11-07 12:29:45 Wiley.-.Pipe.Flow.2012.Retail.eBook-BitBook
2016-11-07 12:30:16 Wiley.-.Statistical.Hypothesis.Testing.with.SAS.and.R.2014.Retail.eBook-BitBook
2016-11-07 12:30:26 Video2Brain.PowerPoint.2016.Tabellen.GERMAN-EMERGE
2016-11-07 12:30:46 Wiley.-.The.Visual.Organization.2014.Retail.eBook-BitBook
2016-11-07 12:31:05 Westworld.S01E06.POLISH.720p.HDTV.x264-ProPLTV
2016-11-07 12:31:29 Gift.Ved.Forste.Blikk.S03E07.NORWEGiAN.720p.HDTV.x264-TvNORGE
2016-11-07 12:33:51 Hyde.and.Seek.S01E06.HDTV.x264-FQM
2016-11-07 12:37:25 2_Raff-Dont_Stop_The_Music-WEB-1994-DWM_INT
2016-11-07 12:38:18 L.A.Crash.2004.German.BDRip.x264.iNTERNAL-TVARCHiV
2016-11-07 12:46:21 Chris_Fear_And_Frikshon-Freakz-WEB-2016-DWM
2016-11-07 12:51:16 VA-CD_Club_Promo_Only_November_Part_1-2016-BFHMP3
2016-11-07 12:51:49 VA-CD_Club_Promo_Only_November_Part_2-2016-BFHMP3
2016-11-07 12:52:23 VA-CD_Club_Promo_Only_November_Part_3-2016-BFHMP3
2016-11-07 12:52:55 VA-CD_Club_Promo_Only_November_Part_4_(Jared_Bear_Pres_Club_Education_Vol_34)-2016-BFHMP3
2016-11-07 12:53:22 Axile_-_Majooba-(CDJ092)-WEB-2016-FMC
2016-11-07 12:53:28 VA-CD_Club_Promo_Only_November_Part_5_(DJ_Combo_Pres_Essential_Selection_Vol_9)-2016-BFHMP3
2016-11-07 12:53:42 Danny_Q_Parker_-_Hopetown-WEB-2016-FMC
2016-11-07 12:53:56 Ducka_Shan_-_Wuuut-(PY183)-WEB-2016-FMC
2016-11-07 12:54:03 VA-CD_Club_Promo_Only_Polish_Edition_Vol_11-PL-2016-BFPMP3
2016-11-07 12:54:09 Gorbunoff_-_Samurai-(AZREC206)-WEB-2016-FMC
2016-11-07 12:54:26 Set_Collins_and_Sofy_C.S_Ft._Monika_Santucci_-_Rivals-(BR235)-WEB-2016-FMC
2016-11-07 12:54:31 VA-Disco_Dance_Club_International_Vol_17-2016-BFHMP3
2016-11-07 12:54:42 Tonski_and_Jma_-_Never_Ever-(INTR1607)-WEB-2016-FMC
2016-11-07 12:55:02 VA-Disco_Dance_Club_Vol_11.1-PL-2016-BFPMP3
2016-11-07 12:55:35 VA-Disco_Dance_Club_Vol_11.2-PL-2016-BFPMP3
2016-11-07 12:55:42 Life.On.The.Line.2015.1080p.BluRay.x264-PFa
2016-11-07 12:57:02 L.A.Crash.2004.German.720p.BluRay.x264.iNTERNAL-TVARCHiV
2016-11-07 12:58:19 Crossing_Mind_-_Beyond_Duality-2016-PsyCZ
2016-11-07 12:58:21 Theres.Something.About.Jessa.Rhodes.XXX.1080P.WEBRIP.MP4-GUSH
2016-11-07 13:08:05 Sound_Horizon-Moira-JP-2008-NER_INT
2016-11-07 13:08:31 Zoo.S02E13.FiNAL.FRENCH.1080p.HDTV.x264-Ryotox
2016-11-07 13:09:24 DJ_Contra_Vs_Gino_And_Victor_Ronda-Hard_Reality_Refucked-WEB-2016-DWM
2016-11-07 13:10:28 This.Christmas.2007.COMPLETE.BLURAY-TAPAS
2016-11-07 13:16:17 Shine.On.Harvey.Moon.S03E01.DVDRip.x264-GHOULS
2016-11-07 13:16:40 Shine.On.Harvey.Moon.S03E02.DVDRip.x264-GHOULS
2016-11-07 13:16:51 Shine.On.Harvey.Moon.S03E03.DVDRip.x264-GHOULS
2016-11-07 13:17:02 Shine.On.Harvey.Moon.S03E04.DVDRip.x264-GHOULS
2016-11-07 13:17:30 Shine.On.Harvey.Moon.S03E05.DVDRip.x264-GHOULS
2016-11-07 13:17:40 Shine.On.Harvey.Moon.S03E06.DVDRip.x264-GHOULS
2016-11-07 13:17:47 Jane.The.Virgin.S02E20.FRENCH.1080p.HDTV.x264-Ryotox
2016-11-07 13:17:51 Shine.On.Harvey.Moon.S03E07.DVDRip.x264-GHOULS
2016-11-07 13:18:01 Shine.On.Harvey.Moon.S03E08.DVDRip.x264-GHOULS
2016-11-07 13:18:05 Race.For.The.White.House.S01E06.Bill.Clinton.vs.George.H.W.Bush.NLSUBBED.720p.HDTV.x264-iFH
2016-11-07 13:18:12 Shine.On.Harvey.Moon.S03E09.DVDRip.x264-GHOULS
2016-11-07 13:19:07 Murdoch.Mysteries.S09E17.FRENCH.1080p.HDTV.x264-Ryotox
2016-11-07 13:19:28 Double.Penetration.2.XXX.720P.WEBRIP.MP4-GUSH
2016-11-07 13:20:46 Mega_Banton_and_T_O_K-Scarface-VLS-2000-YARD
2016-11-07 13:21:31 Murdoch.Mysteries.S09E18.FRENCH.1080p.HDTV.x264-Ryotox
2016-11-07 13:22:40 Marvels.Agents.of.S.H.I.E.L.D.S03E07.FRENCH.1080p.HDTV.x264-Ryotox
2016-11-07 13:23:40 14_K-I_Keep_Holding_On-VLS-FLAC-1999-YARD
2016-11-07 13:24:38 Anthony_B_and_Doniki-Break_Free-VLS-FLAC-2002-YARD
2016-11-07 13:25:01 Xenius.-.Quarz.Mineral.mit.Zukunft.GERMAN.DOKU.720p.HDTV.x264-OWG
2016-11-07 13:25:11 Xenius.-.Quarz.Mineral.mit.Zukunft.GERMAN.DOKU.HDTVRip.x264-OWG
2016-11-07 13:26:55 Anthony_B-High_Grade-VLS-FLAC-1999-YARD
2016-11-07 13:29:25 Anthony_Red_Rose-Under_My_Skin-VLS-FLAC-2009-YARD
2016-11-07 13:30:12 Beenie_Man-Oh_Yes_No_Guess-VLS-FLAC-1995-YARD
2016-11-07 13:30:31 Bust.Lust.3.XXX.2012.HDTV.720p.x264-SHDXXX
2016-11-07 13:30:55 Benzlie_(Innocent_Crew)-One_Bag_A_Man-VLS-FLAC-1998-YARD
2016-11-07 13:31:30 Boby_Crystal_and_Alley_Cat-Cutie_Pie-VLS-FLAC-1996-YARD
2016-11-07 13:31:35 Bust.Lust.3.XXX.2012.HDTV.1080p.x264-SHDXXX
2016-11-07 13:31:59 MMZ-Tout_Pour_Le_Gang-BONUS_TRACKS-(WEB)-FR-2016-H5N1
2016-11-07 13:32:01 Bounty_Killer-Buss_It-VLS-FLAC-2004-YARD
2016-11-07 13:32:40 Penthouse.Back.Door.To.Portugal.XXX.2014.HDTV.720p.x264-SHDXXX
2016-11-07 13:33:47 Penthouse.Back.Door.To.Portugal.XXX.2014.HDTV.1080p.x264-SHDXXX
2016-11-07 13:34:27 Danny_English-6_0_0-VLS-FLAC-2005-YARD
2016-11-07 13:34:58 Danny_English-One_Two-VLS-FLAC-2000-YARD
2016-11-07 13:35:27 Bastard.2015.DVDRip.x264-SPOOKS
2016-11-07 13:37:49 Devonte-Set_So-VLS-FLAC-1998-YARD
2016-11-07 13:40:03 Penthouse.Cougars.And.Cubs.Crave.XXX.2014.HDTV.720p.x264-SHDXXX
2016-11-07 13:41:09 Penthouse.Cougars.And.Cubs.Crave.XXX.2014.HDTV.1080p.x264-SHDXXX
2016-11-07 13:41:49 Elephant_Man_and_Risto_Benjie-A_Bad_Mi_Affi_Get_Bad-VLS-FLAC-2003-YARD
2016-11-07 13:42:17 Penthouse.Downtown.And.Dirty.XXX.2016.HDTV.720p.x264-SHDXXX
2016-11-07 13:43:23 Penthouse.Downtown.And.Dirty.XXX.2016.HDTV.1080p.x264-SHDXXX
2016-11-07 13:44:27 Decommissioned.2016.DVDRip.x264-SPOOKS
2016-11-07 13:46:53 Frankie_Paul-Rejoyce-VLS-FLAC-2000-YARD
2016-11-07 13:47:22 George_Nooks-Show_Me_Love-VLS-FLAC-2002-YARD
2016-11-07 13:47:55 ATKPetites.com_16.11.07.Karlie.Brooks.Uniforms.XXX.IMAGESET-GAGBALL
2016-11-07 13:49:50 Jah_Mason-Keep_Your_Joy-(KP-013)-VLS-FLAC-2000-YARD
2016-11-07 13:52:14 Jah_Mason-They_Take_Love_For_Granted-VLS-FLAC-2000-YARD
2016-11-07 13:52:57 L_M_S-Only_True_Jah-(KP-014)-VLS-FLAC-2000-YARD
2016-11-07 13:53:15 VA-Lundertape_Vol_1-(MAG)-FR-2016-SO
2016-11-07 13:53:30 Sleeping_Dogs_Definitive_Edition_EUR_PS4-TCD
2016-11-07 13:53:50 ATKPremium.com_16.11.07.Alexa.Nova.XXX.IMAGESET-GAGBALL
2016-11-07 13:55:58 AuntJudys.com_16.11.07.Payton.Leigh.Upskirts.And.Panties.XXX.IMAGESET-GAGBALL
2016-11-07 13:56:38 VA-Lundertape_Vol_1-FR-Mag-CD-FLAC-2016-Mrflac
2016-11-07 13:56:51 Leon_Danger-Im_A_Daddy_Now-VLS-FLAC-1998-YARD
2016-11-07 13:57:08 Match.Of.The.Day.Two.2016.11.06.1080p.HDTV.x264-VERUM
2016-11-07 13:58:19 AuntJudys.com_16.11.07.Veronica.Green.Sports.XXX.IMAGESET-GAGBALL
2016-11-07 13:58:45 March.Comes.In.Like.A.Lion.S01E03.RERiP.1080p.WEB.x264-ANiURL
2016-11-07 13:59:03 Bloodivores.S01E06.1080p.WEB.x264-ANiURL
2016-11-07 13:59:09 Bloodivores.S01E06.720p.WEB.x264-ANiURL
2016-11-07 13:59:17 Lukie_D-Pon_Patrol-VLS-FLAC-2000-YARD
2016-11-07 13:59:26 Bloodivores.S01E06.WEB.x264-ANiURL
2016-11-07 14:00:04 ClassicaLoid.S01E05.1080p.WEB.x264-ANiURL
2016-11-07 14:00:10 ClassicaLoid.S01E05.720p.WEB.x264-ANiURL
2016-11-07 14:00:15 ClassicaLoid.S01E05.WEB.x264-ANiURL
2016-11-07 14:00:42 Lukie_D-You_Sang_To_Me-VLS-FLAC-2001-YARD
2016-11-07 14:00:50 EroticBeauty.com_16.11.07.Angelika.D.Presenting.Angelika.D.XXX.IMAGESET-GAGBALL
2016-11-07 14:01:03 Days.S01E18.1080p.WEB.x264-ANiURL
2016-11-07 14:01:06 Lukie_D-Youre_My_Reason-VLS-FLAC-2000-YARD
2016-11-07 14:01:09 Days.S01E18.720p.WEB.x264-ANiURL
2016-11-07 14:01:13 Days.S01E18.WEB.x264-ANiURL
2016-11-07 14:03:18 Marcia_Griffiths-Why_Me-VLS-FLAC-1997-YARD
2016-11-07 14:03:19 Errotica-Archives.com_16.11.07.Solange.Casita.XXX.IMAGESET-GAGBALL
2016-11-07 14:03:41 Assume.The.Position.XXX.2013.HDTV.720p.x264-SHDXXX
2016-11-07 14:04:36 Willie_Max-Bona_Fide-CD-FLAC-1998-Mrflac
2016-11-07 14:05:19 Nostradamus-Election.2016.720p.WEB.H264-TURBO
2016-11-07 14:05:22 VA-Whiteboys-OST-CD-FLAC-1999-Mrflac
2016-11-07 14:06:03 The_Relativez-The_Takeover-CD-FLAC-2002-Mrflac
2016-11-07 14:06:12 EternalDesire.com_16.11.07.Zsanett.Tormay.Pronto.XXX.IMAGESET-GAGBALL
2016-11-07 14:06:39 Dwele-Some_Kinda-CD-FLAC-2005-Mrflac
2016-11-07 14:07:14 Deloach-The_Life_and_Times_Of_Wally_Deluxe-CD-FLAC-2005-Mrflac
2016-11-07 14:07:15 GoddessNudes.com_16.11.07.Olivia.Set.3.XXX.IMAGESET-GAGBALL
2016-11-07 14:11:11 MC-Nudes.com_16.11.07.Lola.Babe.XXX.IMAGESET-GAGBALL
2016-11-07 14:13:48 Mega_Banton_and_T_O_K-Scarface-VLS-FLAC-2000-YARD
2016-11-07 14:14:43 Mega_Banton-Rewind-VLS-FLAC-1998-YARD
2016-11-07 14:15:41 Michael_Rose-Yush-(TAX_081)-VLS-FLAC-1994-YARD
2016-11-07 14:16:57 Morgan_Heritage_and_Daddy_Gong-Give_A_Little_Love-VLS-FLAC-2001-YARD
2016-11-07 14:17:22 Morgan_Heritage-Stay_At_Home-VLS-FLAC-2005-YARD
2016-11-07 14:17:47 Natural_Blacks-What_Yu_Up_To-VLS-FLAC-2001-YARD
2016-11-07 14:18:12 Plucky_Ranx-They_Want_It-VLS-FLAC-2002-YARD
2016-11-07 14:18:36 Razor-Make_My_Money-(SM-169)-VLS-FLAC-1999-YARD
2016-11-07 14:18:59 Shad_Du-Jump_Up_Gal-VLS-FLAC-1998-YARD
2016-11-07 14:19:14 No.Direction.Home.Bob.Dylan.2005.Part.2.1080p.BluRay.x264-RedBlade
2016-11-07 14:19:24 No.Direction.Home.Bob.Dylan.2005.Part.2.720p.BluRay.x264-RedBlade
2016-11-07 14:19:31 No.Direction.Home.Bob.Dylan.2005.Part.2.INTERNAL.BDRip.x264-RedBlade
2016-11-07 14:20:45 Snoopy_Lion-Bingy_Harps-VLS-FLAC-1998-YARD
2016-11-07 14:21:08 Spragga_Benz-Gunz_Up-VLS-FLAC-2000-YARD
2016-11-07 14:21:32 Spragga_Benz-Just_De_Flex-VLS-FLAC-1998-YARD
2016-11-07 14:21:59 Steffie_D-Hail_Up-VLS-FLAC-1998-YARD
2016-11-07 14:22:23 T_O_K-Good_Ride-VLS-FLAC-1999-YARD
2016-11-07 14:24:08 T_O_K-Tell_Me_Why-VLS-FLAC-2004-YARD
2016-11-07 14:24:38 The.Crown.S01E07.720p.WEBRip.X264-DEFLATE
2016-11-07 14:25:48 Tanto_Metro_and_Little_Kirk-Julie-VLS-FLAC-1998-YARD
2016-11-07 14:26:41 Tanto_Metro-Hands_Of_Time-VLS-FLAC-1999-YARD
2016-11-07 14:31:29 Tanto_Metro-Respect-VLS-FLAC-1996-YARD
2016-11-07 14:33:44 Double.Penetration.2.XXX.1080P.WEBRIP.MP4-GUSH
2016-11-07 14:34:11 Tanto_Metro-Round_Robin-VLS-FLAC-1998-YARD
2016-11-07 14:34:20 ASSORTED.PRE.TEST.NUMBER.2-I.AM.SERIOUS.THIS.TIME-EPUB-B1tb00k
2016-11-07 14:34:49 The.Crown.S01E02.PL.720p.WEBRip.x264-FLAME
2016-11-07 14:41:29 Dream.Festival.S01E06.1080p.WEB.x264-ANiURL
2016-11-07 14:42:10 Warrior_King-Virtuous_Woman-VLS-FLAC-2001-YARD
2016-11-07 14:44:07 The_Thrillseekers_Pres._Hydra-Amber_(Skylex_Remix)-(FSOE197)-WEB-2016-UKHx
2016-11-07 14:44:57 MetArtX.com_16.11.07.Nina.North.Through.The.Glass.XXX.IMAGESET-GAGBALL
2016-11-07 14:45:18 The_Thrillseekers_Pres_Hydra-Amber__Skylex_Remix-WEB-2016-TSP_INT
2016-11-07 14:45:49 VA-Hands_On_Indecent_Noise_Vol_2-(MA087)-WEB-2016-UKHx
2016-11-07 14:47:21 Giuseppe_Ottaviani-Aurora_(Onair_Mix)-(BH8020)-WEB-2016-UKHx
2016-11-07 14:49:11 M.I.K.E._Push_-_Nova_Artes-(DMGD059)-WEB-2016-HB
2016-11-07 14:49:26 Major_League_-_Wonder_(Bobina_In_Rock_Remix)-(REWORKED004)-WEB-2016-HB
2016-11-07 14:51:46 Wibad-In_Step_With_Them-(WEB)-2016-H5N1
2016-11-07 14:59:45 Ben_Stone_and_Swen_Van_Der_Endt_-_Dark_Sunset-(UN020)-WEB-2016-HB
2016-11-07 15:02:35 Dream.Festival.S01E06.720p.WEB.x264-ANiURL
2016-11-07 15:02:42 Dream.Festival.S01E06.WEB.x264-ANiURL
2016-11-07 15:03:29 Drifters.S01E05.1080p.WEB.x264-ANiURL
2016-11-07 15:03:35 Drifters.S01E05.720p.WEB.x264-ANiURL
2016-11-07 15:03:41 Drifters.S01E05.WEB.x264-ANiURL
2016-11-07 15:03:55 Barbie.and.Her.Sisters.in.a.Puppy.Chase.2016.FRENCH.BDRip.x264-ZEST
2016-11-07 15:04:10 Izetta.The.Last.Witch.S01E06.1080p.WEB.x264-ANiURL
2016-11-07 15:04:18 Izetta.The.Last.Witch.S01E06.720p.WEB.x264-ANiURL
2016-11-07 15:04:24 Izetta.The.Last.Witch.S01E06.WEB.x264-ANiURL
2016-11-07 15:04:32 Barbie.and.Her.Sisters.in.a.Puppy.Chase.2016.FRENCH.720p.BluRay.x264-ZEST
2016-11-07 15:04:56 Zebra-Hype_Type_A_Love-VLS-FLAC-1998-YARD
2016-11-07 15:05:41 Zumjay-Mommy-VLS-FLAC-1998-YARD
2016-11-07 15:06:19 Kiss.Him.Not.Me.S01E05.1080p.WEB.x264-ANiURL
2016-11-07 15:06:26 Kiss.Him.Not.Me.S01E05.720p.WEB.x264-ANiURL
2016-11-07 15:06:31 Kiss.Him.Not.Me.S01E05.WEB.x264-ANiURL
2016-11-07 15:07:20 Barbie.and.Her.Sisters.in.a.Puppy.Chase.2016.MULTi.1080p.BluRay.x264-ZEST
2016-11-07 15:08:34 Lostorage.Incited.Wixoss.E05.1080p.WEB.x264-ANiURL
2016-11-07 15:09:28 Lostorage.Incited.Wixoss.E05.720p.WEB.x264-ANiURL
2016-11-07 15:09:38 Lostorage.Incited.Wixoss.E05.WEB.x264-ANiURL
2016-11-07 15:10:44 Magic.Kyun.Renaissance.S01E06.1080p.WEB.x264-ANiURL
2016-11-07 15:10:50 Magic.Kyun.Renaissance.S01E06.720p.WEB.x264-ANiURL
2016-11-07 15:10:57 Magic.Kyun.Renaissance.S01E06.WEB.x264-ANiURL
2016-11-07 15:11:59 Magical.Girl.Raising.Project.S01E06.1080p.WEB.x264-ANiURL
2016-11-07 15:12:07 Magical.Girl.Raising.Project.S01E06.720p.WEB.x264-ANiURL
2016-11-07 15:12:15 Magical.Girl.Raising.Project.S01E06.WEB.x264-ANiURL
2016-11-07 15:13:33 March.Comes.In.Like.A.Lion.S01E05.1080p.WEB.x264-ANiURL
2016-11-07 15:13:38 March.Comes.In.Like.A.Lion.S01E05.720p.WEB.x264-ANiURL
2016-11-07 15:13:48 March.Comes.In.Like.A.Lion.S01E05.WEB.x264-ANiURL
2016-11-07 15:14:12 Heyzo.16.09.23.Aoi.Mizutani.Cute.Subjective.Nurse.XXX.720p.MP4-oRo
2016-11-07 15:14:36 Monster.Hunter.Stories.Ride.On.S01E06.1080p.WEB.x264-ANiURL
2016-11-07 15:14:44 Monster.Hunter.Stories.Ride.On.S01E06.720p.WEB.x264-ANiURL
2016-11-07 15:14:50 Monster.Hunter.Stories.Ride.On.S01E06.WEB.x264-ANiURL
2016-11-07 15:14:56 Project_46_Feat_Haliene-Search_and_Rescue_(Gareth_Emery_Remix)-WEB-2016-UKHx
2016-11-07 15:15:32 Occultic.Nine.S01E05.1080p.WEB.x264-ANiURL
2016-11-07 15:15:39 Occultic.Nine.S01E05.720p.WEB.x264-ANiURL
2016-11-07 15:15:44 Po_Shang_Cun-98_Percent_Off-WEB-CPOP-2016-TosK
2016-11-07 15:15:47 Occultic.Nine.S01E05.WEB.x264-ANiURL
2016-11-07 15:16:41 One.Piece.E763.1080p.WEB.x264-ANiURL
2016-11-07 15:16:46 One.Piece.E763.720p.WEB.x264-ANiURL
2016-11-07 15:16:52 One.Piece.E763.WEB.x264-ANiURL
2016-11-07 15:17:44 Pocos.Udon.World.S01E05.1080p.WEB.x264-ANiURL
2016-11-07 15:17:48 Pocos.Udon.World.S01E05.720p.WEB.x264-ANiURL
2016-11-07 15:17:57 Pocos.Udon.World.S01E05.WEB.x264-ANiURL
2016-11-07 15:18:43 Tiger.Mask.W.S01E06.1080p.WEB.x264-ANiURL
2016-11-07 15:18:49 Tiger.Mask.W.S01E06.720p.WEB.x264-ANiURL
2016-11-07 15:18:55 Tiger.Mask.W.S01E06.WEB.x264-ANiURL
2016-11-07 15:19:46 Time.Bokan.24.S01E06.1080p.WEB.x264-ANiURL
2016-11-07 15:19:53 Time.Bokan.24.S01E06.720p.WEB.x264-ANiURL
2016-11-07 15:19:59 Time.Bokan.24.S01E06.WEB.x264-ANiURL
2016-11-07 15:20:55 Touken.Ranbu.Hanamaru.S01E06.1080p.WEB.x264-ANiURL
2016-11-07 15:21:03 Heyzo.16.09.24.Nao.Nishioka.Sensitive.Milf.Gets.Tickled.In.Bed.XXX.720p.MP4-oRo
2016-11-07 15:21:07 Touken.Ranbu.Hanamaru.S01E06.720p.WEB.x264-ANiURL
2016-11-07 15:21:14 Touken.Ranbu.Hanamaru.S01E06.WEB.x264-ANiURL
2016-11-07 15:22:03 Uta.No.Prince.Sama.Legend.Star.E06.1080p.WEB.x264-ANiURL
2016-11-07 15:22:15 Uta.No.Prince.Sama.Legend.Star.E06.720p.WEB.x264-ANiURL
2016-11-07 15:22:31 Uta.No.Prince.Sama.Legend.Star.E06.WEB.x264-ANiURL
2016-11-07 15:26:25 Raz_Nitzan_And_Kate_Louise_Smith-This_Time-(RNMR053)-WEB-2016-UKHx
2016-11-07 15:28:16 Heyzo.16.09.25.Kiryu.Yukina.Uncontrollable.After.Sale.To.Busty.Lust.XXX.720p.MP4-oRo
2016-11-07 15:29:59 Abel_Almena_And_Millennium_-_Candy_Girl_(Miguel_Valbuena_Remixes)-(MX_2112RRR)-WEB-2016-ZzZz
2016-11-07 15:30:28 Bar.Rescue.S05E11.1080p.WEB.x264-HEAT
2016-11-07 15:31:38 EDX-High_On_You-(SPDEEP369)-WEB-2016-UKHx
2016-11-07 15:31:54 Ferreck_Dawn-Mad_Love-(SPDEEP373)-WEB-2016-UKHx
2016-11-07 15:33:31 Heyzo.16.09.26.Saya.Shirakawa.Creampie.Prank.XXX.720p.MP4-oRo
2016-11-07 15:35:01 Pep_And_Rash_And_Polina-Echo__Original_Mix-(SP1208)-WEB-2016-UKHx
2016-11-07 15:35:03 Heyzo.16.09.28.Hikaru.Kurokawa.Sex.With.My.Dirty.Neighbor.XXX.720p.MP4-oRo
2016-11-07 15:35:08 PlayboyPlus.com_16.11.07.Chandler.South.What.Men.Want.XXX.IMAGESET-GAGBALL
2016-11-07 15:35:11 Dirty_Freek_Le_Funnk_Reload_feat_Velma_-_My_Love_Is_Deep-(AST037)-WEB-2015-ZzZz
2016-11-07 15:35:39 Disco_Ballz_-_Love_You_More-(HPR010)-WEB-2015-ZzZz
2016-11-07 15:35:56 Disco_Ballz_-_To_The_Sky_EP-(HPR031)-WEB-2015-ZzZz
2016-11-07 15:36:41 RylskyArt.com_16.11.07.Vittoria.Amada.Skyer.XXX.IMAGESET-GAGBALL
2016-11-07 15:37:01 Alex_Kenji-Yeah_Yeah_Yeah-(ETR343)-WEB-2016-UKHx
2016-11-07 15:38:06 Disco_Kid_feat_Malisha_Bleau_-_Never_Ever_2015-(NPR051)-WEB-2015-ZzZz
2016-11-07 15:38:27 Anal-Beauty.16.11.07.Elle.Rose.XXX.1080p.MP4-KTR
2016-11-07 15:38:40 SexArt.com_16.11.07.Carinela.Melabi.XXX.IMAGESET-GAGBALL
2016-11-07 15:39:25 Boy_Kiss_Girl-Ocean__Syneptic_Extended_Remix-(TBM176)-WEB-2016-UKHx
2016-11-07 15:40:35 Anal-Beauty.16.11.07.Elle.Rose.XXX.2160p.MP4-KTR
2016-11-07 15:40:59 Warsaw.44.2014.STV.DiRFiX.FRENCH.1080p.BluRay.x264-ZEST
2016-11-07 15:41:11 Warsaw.44.2014.STV.DiRFiX.FRENCH.720p.BluRay.x264-ZEST
2016-11-07 15:41:41 ReadyOrNotHereICum.16.11.07.Karyn.XXX.1080p.MP4-KTR
2016-11-07 15:42:00 TheLifeErotic.com_16.11.07.Ariel.S.Lipstick.XXX.IMAGESET-GAGBALL
2016-11-07 15:42:29 Warsaw.44.2014.STV.DiRFiX.FRENCH.BDRip.x264-ZEST
2016-11-07 15:42:44 PunishTeens.16.11.07.Samantha.Hayes.XXX.1080p.MP4-KTR
2016-11-07 15:42:57 Home.Made.Girlfriends.5.XXX.720P.WEBRIP.MP4-GUSH
2016-11-07 15:45:53 The.Cougar.Chronicles.XXX.720P.WEBRIP.MP4-GUSH
2016-11-07 15:46:46 Alex_Bau-Illuse-WEB-2016-BPM
2016-11-07 15:52:04 Comic.Book.Men.S06E03.PROPER.720p.HDTV.x264-MiNDTHEGAP
2016-11-07 15:53:49 Eyewitness.S01E04.1080p.WEB.x264-HEAT
2016-11-07 15:56:33 Comic.Book.Men.S06E03.1080p.WEB.h264-HEAT
2016-11-07 15:56:47 Kendra.Lust.Vs.Lisa.Ann.XXX.720P.WEBRIP.MP4-GUSH
2016-11-07 15:59:57 Sono.La.Bella.Creatura.Che.Vive.In.Questa.Casa.2016.iTALiAN.WEBRip.x264-NTROPiC
2016-11-07 16:00:15 Yousef-Im_Behind_You_EP-WEB-2016-BPM
2016-11-07 16:00:49 Sono.La.Bella.Creatura.Che.Vive.In.Questa.Casa.2016.iTALiAN.720p.WEBRip.x264-NTROPiC
2016-11-07 16:01:31 Sono.La.Bella.Creatura.Che.Vive.In.Questa.Casa.2016.iTALiAN.1080p.WEBRip.x264-NTROPiC
2016-11-07 16:10:53 Gamba.2015.DANISH.BDRip.x264-AFFECTION
2016-11-07 16:11:48 Gamba.2015.FINNISH.BDRip.x264-AFFECTION
2016-11-07 16:12:03 Gamba.2015.NORWEGIAN.BDRip.x264-AFFECTION
2016-11-07 16:12:37 Gamba.2015.SWEDISH.BDRip.x264-AFFECTION
2016-11-07 16:13:04 BackroomCastingCouch.16.11.07.Penelope.XXX.720p.MP4-KTR
2016-11-07 16:13:48 Gamba.2015.DUBBED.BDRip.x264-AFFECTION
2016-11-07 16:15:18 Gamba.2015.DANISH.720p.BluRay.x264-CONDITION
2016-11-07 16:16:50 Gamba.2015.FINNISH.720p.BluRay.x264-CONDITION
2016-11-07 16:16:57 TeenyBlack.16.11.07.Brittany.White.XXX.1080p.MP4-KTR
2016-11-07 16:26:24 Gamba.2015.NORWEGIAN.720p.BluRay.x264-CONDITION
2016-11-07 16:27:44 FakeCop.16.11.07.Damaris.XXX.1080p.MP4-KTR
2016-11-07 16:28:23 MomXXX.16.11.07.Nathaly.Cherie.XXX.1080p.MP4-KTR
2016-11-07 16:29:52 Gamba.2015.SWEDISH.720p.BluRay.x264-CONDITION
2016-11-07 16:31:14 Gamba.2015.DUBBED.720p.BluRay.x264-CONDITION
2016-11-07 16:33:17 FitnessRooms.16.11.07.Nathaly.Cherie.Rachel.Evans.And.Briana.Bounce.XXX.1080p.MP4-KTR
2016-11-07 16:33:19 Bobby.und.Bill.S01E41.Der.Zirkus.GERMAN.WS.HDTV.x264-aWake
2016-11-07 16:34:07 Bobby.und.Bill.S01E41.Der.Zirkus.GERMAN.WS.720p.HDTV.x264-aWake
2016-11-07 16:34:54 Bobby.und.Bill.S01E42.Das.Parkmonster.GERMAN.WS.HDTV.x264-aWake
2016-11-07 16:34:56 Race.For.The.White.House.S01E06.Bill.Clinton.vs.George.H.W.Bush.NLSUBBED.1080p.HDTV.x264-iFH
2016-11-07 16:35:43 Bobby.und.Bill.S01E42.Das.Parkmonster.GERMAN.WS.720p.HDTV.x264-aWake
2016-11-07 16:35:55 Gamba.2015.DANISH.1080p.BluRay.x264-CONDITION
2016-11-07 16:36:32 Der.Haustier.Check.S03E09.GERMAN.WS.HDTV.x264-aWake
2016-11-07 16:37:03 Le.Monde.08.Novembre.2016.French.Retail.eBook-FMR
2016-11-07 16:37:07 Le.Monde.Argent.et.Placements.08.Novembre.2016.French.Retail.eBook-FMR
2016-11-07 16:37:12 Le.Monde.Eco.et.Entreprise.08.Novembre.2016.French.Retail.eBook-FMR
2016-11-07 16:37:20 Der.Haustier.Check.S03E09.GERMAN.WS.720p.HDTV.x264-aWake
2016-11-07 16:37:58 Gamba.2015.FINNISH.1080p.BluRay.x264-CONDITION
2016-11-07 16:38:08 Die.Thundermans.S03E23.Leeres.Haus.GERMAN.WS.HDTV.x264-aWake
2016-11-07 16:38:57 Die.Thundermans.S03E23.Leeres.Haus.GERMAN.WS.720p.HDTV.x264-aWake
2016-11-07 16:39:46 HipHorses.S01E05.Aileen.und.die.Minipferde.Nelli.Donna.und.Co.GERMAN.WS.HDTV.x264-aWake
2016-11-07 16:40:03 Gamba.2015.NORWEGIAN.1080p.BluRay.x264-CONDITION
2016-11-07 16:40:35 HipHorses.S01E05.Aileen.und.die.Minipferde.Nelli.Donna.und.Co.GERMAN.WS.720p.HDTV.x264-aWake
2016-11-07 16:41:01 Butane-Get_Down-WEB-2016-BPM
2016-11-07 16:41:23 Natur.im.Garten.S19E16.Herbstzeit.im.Garten.GERMAN.DOKU.WS.HDTV.x264-aWake
2016-11-07 16:41:37 Kenny_Glasgow-Circus_Tales_Remixes-WEB-2016-BPM
2016-11-07 16:42:12 Natur.im.Garten.S19E16.Herbstzeit.im.Garten.GERMAN.DOKU.WS.720p.HDTV.x264-aWake
2016-11-07 16:42:16 VA-Compost_House_Selection_Vol_3-Unique_Boogie-Moody_House_(Compiled_and_Mixed_by_Rupert_And_Mennert)-WEB-2016-BPM
2016-11-07 16:42:32 Gamba.2015.SWEDISH.1080p.BluRay.x264-CONDITION
2016-11-07 16:43:00 Noddy.der.kleine.Detektiv.S01E26.Der.Fall.von.Schlaurias.unglaublichem.Regenbogenexperiment.GERMAN.WS.HDTV.x264-aWake
2016-11-07 16:43:48 Noddy.der.kleine.Detektiv.S01E26.Der.Fall.von.Schlaurias.unglaublichem.Regenbogenexperiment.GERMAN.WS.720p.HDTV.x264-aWake
2016-11-07 16:44:37 Noddy.der.kleine.Detektiv.S01E26.Der.Fall.von.Schlaurias.unglaublichem.Regenbogenexperiment.GERMAN.WS.1080p.HDTV.x264-aWake
2016-11-07 16:45:25 Ready.for.this.Die.Chance.deines.Lebens.S01E11.Ein.grossartiger.Tag.GERMAN.WS.HDTV.x264-aWake
2016-11-07 16:46:10 Wakrat-Wakrat-WEB-2016-ENTiTLED
2016-11-07 16:46:13 Ready.for.this.Die.Chance.deines.Lebens.S01E11.Ein.grossartiger.Tag.GERMAN.WS.720p.HDTV.x264-aWake
2016-11-07 16:47:01 Ready.for.this.Die.Chance.deines.Lebens.S01E12.Lampenfieber.GERMAN.WS.HDTV.x264-aWake
2016-11-07 16:47:49 Ready.for.this.Die.Chance.deines.Lebens.S01E12.Lampenfieber.GERMAN.WS.720p.HDTV.x264-aWake
2016-11-07 16:48:24 Andy_Rivera-La_Nueva_Era_The_Mixtape-SP-WEB-2016-ENRAGED
2016-11-07 16:48:38 Crim_Dela_Crim-Sleep_Walking_on_Saturn-WEB-2016-ENRAGED
2016-11-07 16:48:55 Davy_Fresh-Black_Broadway-WEB-2016-ENRAGED
2016-11-07 16:49:10 Dice_Dollar-Facts_Vol_1-WEB-2016-ENRAGED
2016-11-07 16:49:14 The.Legend.Of.Heroes.Trails.In.The.Sky.UPDATE.2016.01.16-CPY
2016-11-07 16:49:29 Flossalini_and_Irish_Eyez-Co-Werkerz-WEB-2016-ENRAGED
2016-11-07 16:49:45 ILoveMemphis-Bang_Challenge-Single-WEB-2016-ENRAGED
2016-11-07 16:50:00 ILoveMemphis-Hit_the_Quan_(Bad_Royale_Remix)-Single-WEB-2015-ENRAGED
2016-11-07 16:50:15 ILoveMemphis-_And_Dawon-Turn_Bad-Single-WEB-2016-ENRAGED
2016-11-07 16:50:31 Iheartmemphis-Double_Dabb_(feat_CinoNero)-Single-WEB-2016-ENRAGED
2016-11-07 16:50:49 J-Best_And_Mr_Medina-I_Been-WEB-2016-ENRAGED
2016-11-07 16:51:04 Jahlil_Beats-Fire_In_The_Sky-WEB-2016-ENRAGED
2016-11-07 16:51:22 Jason_Dy-Jason_Dy_(Deluxe)-BONUS_TRACKS-WEB-2016-ENRAGED
2016-11-07 16:51:36 Jay-B_And_Skor_Dawg-So_Connected_Vol_1-WEB-2012-ENRAGED
2016-11-07 16:51:53 Jay_B-New_World_Order-WEB-2015-ENRAGED
2016-11-07 16:52:08 Jay_B-Party_On_Neptune-WEB-2011-ENRAGED
2016-11-07 16:52:24 Jay_B-Slaps_N_Slumperz-WEB-2013-ENRAGED
2016-11-07 16:52:43 Jay_B-True_Stories-WEB-2013-ENRAGED
2016-11-07 16:52:56 Jay_B-West_Coast_Symphony-WEB-2016-ENRAGED
2016-11-07 16:53:12 KING-Fear-Less-WEB-2016-ENRAGED
2016-11-07 16:53:29 King_Cyz-Wake-Up-WEB-2005-ENRAGED
2016-11-07 16:53:48 King_Cyz-Wake_Up_2_REM-WEB-2016-ENRAGED
2016-11-07 16:54:03 Lil_Yase-Diss_Me_(feat_Cash_Kidd)-Single-WEB-2016-ENRAGED
2016-11-07 16:54:18 Lil_Yase-Fuck_Being_Broke-Single-WEB-2016-ENRAGED
2016-11-07 16:54:33 Lil_Yase-Yeah_Yeah-Single-WEB-2016-ENRAGED
2016-11-07 16:54:49 Migos-3_Way-EP-WEB-2016-ENRAGED
2016-11-07 16:55:00 The.Crown.S01E08.720p.WEBRip.X264-DEFLATE
2016-11-07 16:55:10 Migos-Bad_and_Boujee-Single-WEB-2016-ENRAGED
2016-11-07 16:55:23 Natomas_Slimm-Boss_Music_The_Album-WEB-2016-ENRAGED
2016-11-07 16:55:39 Otherwize-Alex-WEB-2016-ENRAGED
2016-11-07 16:55:55 Otherwize-Half_Monster_Half_Amazing-WEB-2014-ENRAGED
2016-11-07 16:56:12 Rappers_Lounge-Granted_The_Right_To_Flip-WEB-2016-ENRAGED
2016-11-07 16:56:27 Snoop_Dogg_And_Mike_Baggz-Running-Single-WEB-2016-ENRAGED
2016-11-07 16:56:43 Soulja_Boy_And_Bow_Wow-Ignorant_Shit-WEB-2016-ENRAGED
2016-11-07 16:56:59 Spyder_D-Break_the_Chains-WEB-2016-ENRAGED
2016-11-07 16:57:15 Stunna_Kid-Kingin-Single-WEB-2012-ENRAGED
2016-11-07 16:57:31 TRAP-Trust_Issues-WEB-2014-ENRAGED
2016-11-07 16:57:47 Trap-99344-WEB-2016-ENRAGED
2016-11-07 16:58:02 Trap-Life.And.Music-WEB-2011-ENRAGED
2016-11-07 16:58:18 VA-California_Rap-WEB-2016-ENRAGED
2016-11-07 16:58:22 The.Crown.S01E09.720p.WEBRip.X264-DEFLATE
2016-11-07 16:58:34 William_Singe-Closer-Single-WEB-2016-ENRAGED
2016-11-07 16:58:51 William_Singe-Ignition-Single-WEB-2016-ENRAGED
2016-11-07 16:59:06 William_Singe-Let_Me_Love_You-Single-WEB-2016-ENRAGED
2016-11-07 16:59:23 Young_Memphis-Memphis_x_Lkellz-Hidden_in_plain_sight_(Produced_by_Al_Bandito)-WEB-2016-ENRAGED
2016-11-07 16:59:48 PremiumSoft.Navicat.Data.Modeler.Essentials.v2.1.10.LINUX.Incl.Keygen.and.Patch-AMPED
2016-11-07 17:00:05 PremiumSoft.Navicat.Data.Modeler.Essentials.v2.1.10.LINUX.X64.Incl.Keygen.and.Patch-AMPED
2016-11-07 17:00:17 PremiumSoft.Navicat.Data.Modeler.v2.1.10.LINUX.Incl.Keygen.and.Patch-AMPED
2016-11-07 17:00:30 PremiumSoft.Navicat.Data.Modeler.v2.1.10.LINUX.X64.Incl.Keygen.and.Patch-AMPED
2016-11-07 17:00:52 PremiumSoft.Navicat.Essentials.for.MariaDB.v11.2.13.LINUX.Incl.Keygen.and.Patch-AMPED
2016-11-07 17:01:05 PremiumSoft.Navicat.Essentials.for.MariaDB.v11.2.13.LINUX.X64.Incl.Keygen.and.Patch-AMPED
2016-11-07 17:01:17 PremiumSoft.Navicat.Essentials.for.MySQL.v11.2.13.LINUX.Incl.Keygen.and.Patch-AMPED
2016-11-07 17:01:26 Christian_Death-The_Root_Of_All_Evilution-2015-D2H
2016-11-07 17:01:30 PremiumSoft.Navicat.Essentials.for.MySQL.v11.2.13.LINUX.X64.Incl.Keygen.and.Patch-AMPED
2016-11-07 17:01:42 PremiumSoft.Navicat.Essentials.for.Oracle.v11.2.13.LINUX.Incl.Keygen.and.Patch-AMPED
2016-11-07 17:01:48 Gamba.2015.DUBBED.1080p.BluRay.x264-CONDITION
2016-11-07 17:01:54 PremiumSoft.Navicat.Essentials.for.Oracle.v11.2.13.LINUX.X64.Incl.Keygen.and.Patch-AMPED
2016-11-07 17:02:03 Mr.Bean.The.Animated.Series.S02E06.FRENCH.720p.HDTV.x264-D4KiD
2016-11-07 17:02:07 PremiumSoft.Navicat.Essentials.for.PostgreSQL.v11.2.13.LINUX.Incl.Keygen.and.Patch-AMPED
2016-11-07 17:02:17 Good.Girls.Revolt.S01E01.1080p.WEBRip.X264-DEFLATE
2016-11-07 17:02:18 PremiumSoft.Navicat.Essentials.for.PostgreSQL.v11.2.13.LINUX.X64.Incl.Keygen.and.Patch-AMPED
2016-11-07 17:02:31 PremiumSoft.Navicat.Essentials.for.SQLite.v11.2.13.LINUX.Incl.Keygen.and.Patch-AMPED
2016-11-07 17:02:44 PremiumSoft.Navicat.Essentials.for.SQLite.v11.2.13.LINUX.X64.Incl.Keygen.and.Patch-AMPED
2016-11-07 17:02:55 PremiumSoft.Navicat.for.MariaDB.Enterprise.Edition.v11.2.13.LINUX.Incl.Keygen.and.Patch-AMPED
2016-11-07 17:03:01 Grandfathered.S01E07.German.DL.Dubbed.WEBRip.x264-M4XD0ME
2016-11-07 17:03:07 VA-Prophecy_Label_Compilation-The_Early_Days_1996-1999-2015-D2H
2016-11-07 17:03:08 PremiumSoft.Navicat.for.MariaDB.Enterprise.Edition.v11.2.13.LINUX.X64.Incl.Keygen.and.Patch-AMPED
2016-11-07 17:03:19 PremiumSoft.Navicat.for.MySQL.Enterprise.Edition.v11.2.13.LINUX.Incl.Keygen.and.Patch-AMPED
2016-11-07 17:03:20 Mr.Bean.The.Animated.Series.S02E06.FRENCH.HDTV.x264-D4KiD
2016-11-07 17:03:32 PremiumSoft.Navicat.for.MySQL.Enterprise.Edition.v11.2.13.LINUX.X64.Incl.Keygen.and.Patch-AMPED
2016-11-07 17:03:45 PremiumSoft.Navicat.for.Oracle.Enterprise.Edition.v11.2.13.LINUX.Incl.Keygen.and.Patch-AMPED
2016-11-07 17:03:57 PremiumSoft.Navicat.for.Oracle.Enterprise.Edition.v11.2.13.LINUX.X64.Incl.Keygen.and.Patch-AMPED
2016-11-07 17:04:09 PremiumSoft.Navicat.for.PostgreSQL.Enterprise.Edition.v11.2.13.LINUX.Incl.Keygen.and.Patch-AMPED
2016-11-07 17:04:22 PremiumSoft.Navicat.for.PostgreSQL.Enterprise.Edition.v11.2.13.LINUX.X64.Incl.Keygen.and.Patch-AMPED
2016-11-07 17:04:34 PremiumSoft.Navicat.for.SQLite.Enterprise.Edition.v11.2.13.LINUX.Incl.Keygen.and.Patch-AMPED
2016-11-07 17:04:40 Mr.Bean.The.Animated.Series.S02E07.FRENCH.720p.HDTV.x264-D4KiD
2016-11-07 17:04:47 PremiumSoft.Navicat.for.SQLite.Enterprise.Edition.v11.2.13.LINUX.X64.Incl.Keygen.and.Patch-AMPED
2016-11-07 17:04:54 Phelios-Human_Stasis_Habitat-2016-D2H
2016-11-07 17:04:59 PremiumSoft.Navicat.Premium.Edition.v11.2.13.LINUX.Incl.Keygen.and.Patch-AMPED
2016-11-07 17:05:12 PremiumSoft.Navicat.Premium.Edition.v11.2.13.LINUX.X64.Incl.Keygen.and.Patch-AMPED
2016-11-07 17:05:17 Good.Girls.Revolt.S01E02.1080p.WEBRip.X264-DEFLATE
2016-11-07 17:05:25 PremiumSoft.Navicat.Premium.Essentials.v11.2.13.LINUX.Incl.Keygen.and.Patch-AMPED
2016-11-07 17:05:32 Gnawed-Pestilence_Beholden-2016-D2H
2016-11-07 17:05:37 PremiumSoft.Navicat.Premium.Essentials.v11.2.13.LINUX.X64.Incl.Keygen.and.Patch-AMPED
2016-11-07 17:06:02 Mr.Bean.The.Animated.Series.S02E07.FRENCH.HDTV.x264-D4KiD
2016-11-07 17:06:10 Beyond_Sensory_Experience-The_End_Of_It_All-2016-D2H
2016-11-07 17:08:18 Good.Girls.Revolt.S01E03.1080p.WEBRip.X264-DEFLATE
2016-11-07 17:11:18 Good.Girls.Revolt.S01E04.1080p.WEBRip.X264-DEFLATE
2016-11-07 17:11:28 60.Minutes.S49E07.The.Battle.for.Mosul.The.National.Mood.The.Zika.Virus.720p.WEB.h264-ROFL
2016-11-07 17:11:30 60.Minutes.S49E07.The.Battle.for.Mosul.The.National.Mood.The.Zika.Virus.WEB.h264-ROFL
2016-11-07 17:11:31 Andys.Dinosaur.Adventures.S01E12.Placerias.and.Red.Clay.720p.WEB.h264-ROFL
2016-11-07 17:11:32 Andys.Dinosaur.Adventures.S01E12.Placerias.and.Red.Clay.WEB.h264-ROFL
2016-11-07 17:11:35 Breaking.Into.Prison.720p.WEB.h264-ROFL
2016-11-07 17:11:37 Breaking.Into.Prison.WEB.h264-ROFL
2016-11-07 17:11:41 Countryfile.S28E45.Ramble.for.Children.in.Need.WEB.h264-ROFL
2016-11-07 17:11:42 Dateline.NBC.2016.11.05.The.Client.720p.WEB.h264-ROFL
2016-11-07 17:11:42 Countryfile.S28E45.Ramble.for.Children.in.Need.720p.WEB.h264-ROFL
2016-11-07 17:11:42 Dateline.NBC.2016.11.05.The.Client.WEB.h264-ROFL
2016-11-07 17:11:43 Give.S01E05.Give.to.Lending.a.Hand.to.the.Homeless.in.Los.Angeles.720p.WEB.h264-ROFL
2016-11-07 17:11:45 Give.S01E05.Give.to.Lending.a.Hand.to.the.Homeless.in.Los.Angeles.WEB.h264-ROFL
2016-11-07 17:11:46 Heart.of.a.Champion.with.Lauren.Thompson.S01E05.School.Ties.720p.WEB.h264-ROFL
2016-11-07 17:11:51 John.Berger.The.Art.of.Looking.720p.WEB.h264-ROFL
2016-11-07 17:11:52 John.Berger.The.Art.of.Looking.WEB.h264-ROFL
2016-11-07 17:11:53 Heart.of.a.Champion.with.Lauren.Thompson.S01E05.School.Ties.WEB.h264-ROFL
2016-11-07 17:11:54 Journey.with.Dylan.Dreyer.S01E05.Dance.of.the.Continents.720p.WEB.h264-ROFL
2016-11-07 17:11:57 Journey.with.Dylan.Dreyer.S01E05.Dance.of.the.Continents.WEB.h264-ROFL
2016-11-07 17:12:00 Justins.House.S04E08.720p.WEB.h264-ROFL
2016-11-07 17:12:01 Justins.House.S04E08.WEB.h264-ROFL
2016-11-07 17:12:02 Justins.House.S04E09.720p.WEB.h264-ROFL
2016-11-07 17:12:04 Justins.House.S04E09.WEB.h264-ROFL
2016-11-07 17:12:07 Justins.House.S04E10.720p.WEB.h264-ROFL
2016-11-07 17:12:07 Justins.House.S04E10.WEB.h264-ROFL
2016-11-07 17:12:12 Naturally.Danny.Seo.S01E05.Natures.Workout.720p.WEB.h264-ROFL
2016-11-07 17:12:15 Newsround.2016.11.07.The.Kids.Who.Support.Trump.and.Clinton.720p.WEB.h264-ROFL
2016-11-07 17:12:16 Naturally.Danny.Seo.S01E05.Natures.Workout.WEB.h264-ROFL
2016-11-07 17:12:19 Newsround.2016.11.07.The.Kids.Who.Support.Trump.and.Clinton.WEB.h264-ROFL
2016-11-07 17:12:20 Pointless.Celebrities.S10E13.Journalists.WEB.h264-ROFL
2016-11-07 17:12:21 Pointless.Celebrities.S10E13.Journalists.720p.WEB.h264-ROFL
2016-11-07 17:12:22 QI.XL.S09E03.Nosey.Noisy.720p.WEB.h264-ROFL
2016-11-07 17:12:24 QI.XL.S09E03.Nosey.Noisy.WEB.h264-ROFL
2016-11-07 17:12:26 Songs.of.Praise.2016.10.09.The.Big.Sing.2016.720p.WEB.h264-ROFL
2016-11-07 17:12:28 Songs.of.Praise.2016.10.09.The.Big.Sing.2016.WEB.h264-ROFL
2016-11-07 17:12:30 Songs.of.Praise.2016.10.16.720p.WEB.h264-ROFL
2016-11-07 17:12:33 Songs.of.Praise.2016.10.16.WEB.h264-ROFL
2016-11-07 17:12:34 Songs.of.Praise.2016.10.23.720p.WEB.h264-ROFL
2016-11-07 17:12:36 Songs.of.Praise.2016.10.23.WEB.h264-ROFL
2016-11-07 17:12:38 Songs.of.Praise.2016.10.30.Gospel.Choir.of.the.Year.2016.Part.One.720p.WEB.h264-ROFL
2016-11-07 17:12:42 Songs.of.Praise.2016.10.30.Gospel.Choir.of.the.Year.2016.Part.One.WEB.h264-ROFL
2016-11-07 17:12:44 Songs.of.Praise.2016.11.06.Gospel.Choir.of.the.Year.2016.Part.Two.720p.WEB.h264-ROFL
2016-11-07 17:12:48 Songs.of.Praise.2016.11.06.Gospel.Choir.of.the.Year.2016.Part.Two.WEB.h264-ROFL
2016-11-07 17:12:51 Storyville.2016.11.06.Weiner.Sexts.Scandals.and.Politics.720p.WEB.h264-ROFL
2016-11-07 17:12:55 Storyville.2016.11.06.Weiner.Sexts.Scandals.and.Politics.WEB.h264-ROFL
2016-11-07 17:12:56 Strictly.Come.Dancing.S14E14.Week.7.DIRFIX.720p.WEB.h264-ROFL
2016-11-07 17:12:59 Strictly.Come.Dancing.S14E14.Week.7.DIRFIX.WEB.h264-ROFL
2016-11-07 17:13:00 Strictly.Come.Dancing.S14E15.Week.7.Results.720p.WEB.h264-ROFL
2016-11-07 17:13:00 Strictly.Come.Dancing.S14E15.Week.7.Results.WEB.h264-ROFL
2016-11-07 17:13:00 Talking.Pictures.UK.S01E11.Ingrid.Bergman.WEB.h264-ROFL
2016-11-07 17:13:01 Talking.Pictures.UK.S01E18.Alfred.Hitchcock.WEB.h264-ROFL
2016-11-07 17:13:02 Talking.Pictures.UK.S01E23.Laurence.Olivier.WEB.h264-ROFL
2016-11-07 17:13:05 The.Andrew.Marr.Show.2016.10.30.720p.WEB.h264-ROFL
2016-11-07 17:13:06 The.Andrew.Marr.Show.2016.10.30.WEB.h264-ROFL
2016-11-07 17:13:10 The.Andrew.Marr.Show.2016.11.06.720p.WEB.h264-ROFL
2016-11-07 17:13:13 The.Andrew.Marr.Show.2016.11.06.WEB.h264-ROFL
2016-11-07 17:13:13 The.Furchester.Hotel.S02E06.720p.WEB.h264-ROFL
2016-11-07 17:13:14 The.Furchester.Hotel.S02E06.WEB.h264-ROFL
2016-11-07 17:13:16 The.People.Remember.S03E01.720p.WEB.h264-ROFL
2016-11-07 17:13:18 The.People.Remember.S03E01.WEB.h264-ROFL
2016-11-07 17:13:22 The.Voyager.with.Josh.Garcia.S01E05.Norway.the.Right.Way.720p.WEB.h264-ROFL
2016-11-07 17:13:25 The.Voyager.with.Josh.Garcia.S01E05.Norway.the.Right.Way.WEB.h264-ROFL
2016-11-07 17:13:26 Wilderness.Vet.S01E05.Bundles.of.Joy.720p.WEB.h264-ROFL
2016-11-07 17:13:29 Wilderness.Vet.S01E05.Bundles.of.Joy.WEB.h264-ROFL
2016-11-07 17:14:28 Good.Girls.Revolt.S01E05.1080p.WEBRip.X264-DEFLATE
2016-11-07 17:14:31 Grandfathered.S01E07.German.DL.Dubbed.720p.WebHD.h264-M4XD0ME
2016-11-07 17:15:23 Grandfathered.S01E07.German.DL.Dubbed.1080p.WebHD.h264-M4XD0ME
2016-11-07 17:16:40 Grandfathered.S01E08.German.DL.Dubbed.WEBRip.x264-M4XD0ME
2016-11-07 17:17:15 QI.S14E03.EXTENDED.720p.HDTV.x264-C4TV
2016-11-07 17:17:28 Good.Girls.Revolt.S01E06.1080p.WEBRip.X264-DEFLATE
2016-11-07 17:18:08 Grandfathered.S01E08.German.DL.Dubbed.720p.WebHD.h264-M4XD0ME
2016-11-07 17:18:46 Grandfathered.S01E08.German.DL.Dubbed.1080p.WebHD.h264-M4XD0ME
2016-11-07 17:20:05 Operation.Gold.Rush.With.Dan.Snow.S01E02.720p.HDTV.x264-C4TV
2016-11-07 17:20:28 Good.Girls.Revolt.S01E07.1080p.WEBRip.X264-DEFLATE
2016-11-07 17:23:29 Good.Girls.Revolt.S01E08.1080p.WEBRip.X264-DEFLATE
2016-11-07 17:24:14 The.Empire.of.Corpses.2015.BDRip.x264-VoMiT
2016-11-07 17:24:58 The.Empire.of.Corpses.2015.720p.BluRay.x264-SADPANDA
2016-11-07 17:25:02 Los.Simpsons.S15E01.SPANiSH.HR.WS.PDTV.X264-LPH
2016-11-07 17:25:43 The.Empire.of.Corpses.2015.1080p.BluRay.x264-SADPANDA
2016-11-07 17:26:30 Good.Girls.Revolt.S01E09.1080p.WEBRip.X264-DEFLATE
2016-11-07 17:26:45 The.Empire.of.Corpses.2015.COMPLETE.BLURAY-watchHD
2016-11-07 17:26:49 Los.Simpsons.S15E02.SPANiSH.HR.WS.PDTV.X264-LPH
2016-11-07 17:28:33 Los.Simpsons.S15E04.SPANiSH.HR.WS.PDTV.X264-LPH
2016-11-07 17:28:45 MTV.Wonderland.S01E08.1080p.WEB.x264-HEAT
2016-11-07 17:29:36 Good.Girls.Revolt.S01E10.1080p.WEBRip.X264-DEFLATE
2016-11-07 17:30:23 Los.Simpsons.S15E05.SPANiSH.HR.WS.PDTV.X264-LPH
2016-11-07 17:33:22 VA_-_We_Love_Hands_Up-Mix_001_(Mixed_By_Jens_O)-BOOTLEG-WEB-2016-ZzZz_INT
2016-11-07 17:34:18 Los.Simpsons.S15E08.SPANiSH.HR.WS.PDTV.X264-LPH
2016-11-07 17:35:26 ReYou-Substitute-WEB-2016-BPM
2016-11-07 17:35:43 Penthouse.Latin.Girls.Exposed.XXX.2014.HDTV.720p.x264-SHDXXX
2016-11-07 17:36:22 Los.Simpsons.S15E09.SPANiSH.HR.WS.PDTV.X264-LPH
2016-11-07 17:36:56 Penthouse.Latin.Girls.Exposed.XXX.2014.HDTV.1080p.x264-SHDXXX
2016-11-07 17:37:47 The.Ellen.DeGeneres.Show.2016.11.02.720p.HDTV.x264-ALTEREGO
2016-11-07 17:38:35 Los.Simpsons.S15E10.SPANiSH.HR.WS.PDTV.X264-LPH
2016-11-07 17:40:36 The.Ellen.DeGeneres.Show.2016.11.02.HDTV.x264-ALTEREGO
2016-11-07 17:40:46 Los.Simpsons.S15E11.SPANiSH.HR.WS.PDTV.X264-LPH
2016-11-07 17:42:47 Los.Simpsons.S15E12.SPANiSH.HR.WS.PDTV.X264-LPH
2016-11-07 17:43:01 The.Men.Collector.XXX.2001.HDTV.720p.x264-SHDXXX
2016-11-07 17:43:04 Kyle_Bent-Complex_Simplicity-WEB-2016-ENRAGED
2016-11-07 17:43:23 Melo_V-Cant_Be-Single-WEB-2016-ENRAGED
2016-11-07 17:43:38 Melo_V-Killin_dat_Thing_(feat_Reem_Ali)-Single-WEB-2016-ENRAGED
2016-11-07 17:43:53 Melo_V-Red_Light_Green_Light-Single-WEB-2009-ENRAGED
2016-11-07 17:44:39 The.Men.Collector.XXX.2001.HDTV.1080p.x264-SHDXXX
2016-11-07 17:44:44 Los.Simpsons.S15E13.SPANiSH.HR.WS.PDTV.X264-LPH
2016-11-07 17:45:49 The.Ellen.DeGeneres.Show.2016.11.03.720p.HDTV.x264-ALTEREGO
2016-11-07 17:45:51 Spiegel.TV.Magazin.2016.10.30.GERMAN.Doku.WS.dTV.x264-WMZ
2016-11-07 17:46:02 Los.Simpsons.S15E14.SPANiSH.HR.WS.PDTV.X264-LPH
2016-11-07 17:48:24 The.Ellen.DeGeneres.Show.2016.11.03.HDTV.x264-ALTEREGO
2016-11-07 17:48:32 Los.Simpsons.S15E15.SPANiSH.HR.WS.PDTV.X264-LPH
2016-11-07 17:48:49 Schwiegertochter.gesucht.S10E08.GERMAN.DOKU.720p.HDTV.x264-RTL
2016-11-07 17:49:17 Schwiegertochter.gesucht.S10E08.GERMAN.DOKU.HDTV.x264-RTL
2016-11-07 17:50:31 Los.Simpsons.S15E16.SPANiSH.HR.WS.PDTV.X264-LPH
2016-11-07 17:52:01 Los.Simpsons.S15E17.SPANiSH.HR.WS.PDTV.X264-LPH
2016-11-07 17:52:08 Energy_Voice_Feat_Italobox_-_Best_Of_New_Italo_Hits_2016-(361497_2245573)-WEB-2016-ZzZz
2016-11-07 17:52:40 VA-Amsterdam_Dance_Event_2016-Pres_By_Parquet_Recordings-WEB-2016-BPM
2016-11-07 17:52:48 Visite.2016.11.01.GERMAN.Doku.WS.dTV.x264-WMZ
2016-11-07 17:52:53 VA-From_Dusk_Till_Dawn_Music_From_The_Motion_Picture-OST-PROPER-CD-FLAC-1996-VOLDiES
2016-11-07 17:53:17 Mad.Max.Fury.Road.2015.3D.MULTi.COMPLETE.BLURAY-COJONUDO
2016-11-07 17:53:23 Los.Simpsons.S15E18.SPANiSH.HR.WS.PDTV.X264-LPH
2016-11-07 17:53:46 The.Ellen.DeGeneres.Show.2016.11.04.720p.HDTV.x264-ALTEREGO
2016-11-07 17:53:56 Carli.Lloyd.-.When.Nobody.Was.Watching.2016.RETAiL.ePUB.eBOOK-DiSTRiBUTiON
2016-11-07 17:54:08 Joshua.Partlow.-.A.Kingdom.of.Their.Own.2016.RETAiL.ePUB.eBOOK-DiSTRiBUTiON
2016-11-07 17:54:19 Mike.Massimino.-.Spaceman.2016.RETAiL.ePUB.eBOOK-DiSTRiBUTiON
2016-11-07 17:54:40 Philippe.Sands.-.East.West.Street.2016.RETAiL.ePUB.eBOOK-DiSTRiBUTiON
2016-11-07 17:55:25 Los.Simpsons.S15E19.SPANiSH.HR.WS.PDTV.X264-LPH
2016-11-07 17:56:28 The.Ellen.DeGeneres.Show.2016.11.04.HDTV.x264-ALTEREGO
2016-11-07 17:57:16 Los.Simpsons.S15E20.SPANiSH.HR.WS.PDTV.X264-LPH
2016-11-07 17:58:11 Amateur.Vol.1.2016.XXX.DVDRip.x264-HAiRYPUSSY
2016-11-07 17:59:01 Los.Simpsons.S15E21.SPANiSH.HR.WS.PDTV.X264-LPH
2016-11-07 17:59:06 Kendra.Lust.Vs.Lisa.Ann.XXX.1080P.WEBRIP.MP4-GUSH
2016-11-07 17:59:44 VA_-_We_Love_Hands_Up-Mix_002_(Mixed_By_Jens_O)-BOOTLEG-WEB-2016-ZzZz_INT
2016-11-07 18:00:19 Los.Simpsons.S15E22.SPANiSH.HR.WS.PDTV.X264-LPH
2016-11-07 18:00:29 Allsvenskan.2016.AIK.vs.Kalmar.SWEDiSH.720p.HDTV.x264-1891
2016-11-07 18:01:00 Los.Simpsons.S15E06.SPANiSH.HR.WS.PDTV.X264-LPH
2016-11-07 18:06:09 VA_-_We_Love_Hands_Up-Mix_003_(Mixed_By_Jens_O)-BOOTLEG-WEB-2016-ZzZz_INT
2016-11-07 18:09:06 John_Sinclair-Folge_2000_-_Das_Hoellenkreuz-2CD-Audiobook-DE-2016-VOiCE
2016-11-07 18:09:18 Adriatique-Patterns_of_Eternity-EP-WEB-2016-BPM
2016-11-07 18:09:43 Designated.Survivor.S01E01.FRENCH.720p.WEBRip.x264-SH0W
2016-11-07 18:09:54 Echonomist-Dusk_EP-WEB-2016-BPM
2016-11-07 18:10:00 VA_-_We_Love_Hands_Up-Mix_004_(Mixed_By_Jens_O)-BOOTLEG-WEB-2016-ZzZz_INT
2016-11-07 18:10:34 Kasper_Koman-Trail-Leap-WEB-2016-BPM
2016-11-07 18:10:48 Designated.Survivor.S01E01.FRENCH.1080p.WEBRip.x264-SH0W
2016-11-07 18:10:51 Geisterjaeger_John_Sinclair-2000_Das_Hoellenkreuz-DE-AUDIOBOOK-2CD-FLAC-2016-VOLDiES
2016-11-07 18:11:00 Martyrs.The.Ultimate.Horror.Movie.3D.2015.German.720p.BluRay.x264-ETM
2016-11-07 18:11:11 N-UM-Zebra-WEB-2016-BPM
2016-11-07 18:11:48 VA-Adult_Only_Records_Remix_Pt_1-WEB-2016-BPM
2016-11-07 18:12:26 VA-Adult_Only_Records_Remix_Pt_2-WEB-2016-BPM
2016-11-07 18:14:14 Imagineer.Systems.Mocha.Pro.Adobe.Plugin.v5.1.1.MACOSX-AMPED
2016-11-07 18:14:25 VA_-_We_Love_Hands_Up-Mix_005_(Mixed_By_Ti-Mo)-BOOTLEG-WEB-2016-ZzZz_INT
2016-11-07 18:14:27 Martyrs.The.Ultimate.Horror.Movie.3D.2015.German.DL.1080p.BluRay.x264-ETM
2016-11-07 18:14:33 Imagineer.Systems.Mocha.Pro.Adobe.Plugin.v5.1.1.X64-AMPED
2016-11-07 18:14:43 Imagineer.Systems.Mocha.Pro.Avid.Plugin.v5.1.1.MACOSX-AMPED
2016-11-07 18:14:56 Imagineer.Systems.Mocha.Pro.Avid.Plugin.v5.1.1.X64-AMPED
2016-11-07 18:15:07 Imagineer.Systems.Mocha.Pro.OFX.Plugin.v5.1.1.LINUX-AMPED
2016-11-07 18:15:19 Imagineer.Systems.Mocha.Pro.OFX.Plugin.v5.1.1.MACOSX-AMPED
2016-11-07 18:15:31 Imagineer.Systems.Mocha.Pro.OFX.Plugin.v5.1.1.X64-AMPED
2016-11-07 18:17:45 VA_-_We_Love_Hands_Up-Mix_006_(Mixed_By_Jens_O)-BOOTLEG-WEB-2016-ZzZz_INT
2016-11-07 18:21:09 VA_-_We_Love_Hands_Up-Mix_007_(Mixed_By_Jens_O)-BOOTLEG-WEB-2016-ZzZz_INT
2016-11-07 18:22:56 Code_Realize_Guardian_of_Rebirth_PSV-TRSI
2016-11-07 18:23:25 Dollarprinzessinnen.S02E02.Alles.fuer.die.Kunst.GERMAN.DOKU.HDTV.720p.x264-NVA
2016-11-07 18:25:05 Dollarprinzessinnen.S02E02.Alles.fuer.die.Kunst.GERMAN.DOKU.HDTVRip.x264-NVA
2016-11-07 18:26:33 The.Young.Pope.S01E05.Episode5.GERMAN.DL.HDTV.1080p.x264-NVA
2016-11-07 18:26:52 Stern.TV.2016.11.02.GERMAN.Doku.WS.dTV.x264-FiXTv
2016-11-07 18:28:26 The.Young.Pope.S01E06.Episode6.GERMAN.DL.HDTV.1080p.x264-NVA
2016-11-07 18:35:40 Neil_Moore_-_HeavensGate_536-SAT-11-06-2016-TALiON
2016-11-07 18:36:31 Independence.Day.Wiederkehr.2016.German.DL.1080p.BluRay.AVC-AVC4D
2016-11-07 18:37:39 Extravagance_SL_-_HeavensGate_536-SAT-11-06-2016-TALiON
2016-11-07 18:40:49 VA_-_Italo_Disco_Extended_Versions_(Vol_5)_(Italo_Holiday)-(BCD_8020)-WEB-2016-ZzZz
2016-11-07 18:48:32 Tommy_Trash-Trashed_Radio_048-SAT-07-11-2016-1KING
2016-11-07 18:49:56 First.Dates.NZ.S01E05.720p.HDTV.x264-FiHTV
2016-11-07 18:54:31 First.Dates.NZ.S01E05.HDTV.x264-FiHTV
2016-11-07 18:55:36 VA_-_Dance_Hits_Vol_1-(BASECL_002)-WEB-2016-ZzZz
2016-11-07 19:06:46 Before.The.Flood.2016.DOC.FRENCH.720p.HDTV.x264-DEAL
2016-11-07 19:08:42 Mr_4Twenty-Smoking_Jacket-WEB-2016-ENRAGED
2016-11-07 19:08:58 Odd-1-Armageddon-WEB-2008-ENRAGED_iNT
2016-11-07 19:09:02 Luke_DB-Baby_Show_Me-(HSR489)-WEB-2016-UKHx
2016-11-07 19:09:14 Odd-1-Defying_The_Odds-WEB-2012-ENRAGED
2016-11-07 19:09:21 Blues.Brothers.2000.1998.COMPLETE.BLURAY-CiNEMATiC
2016-11-07 19:09:41 Velkommen.I.Klubben.S01E01.DANiSH.720p.WEBRip.x264-TVBYEN
2016-11-07 19:12:37 Les.Mysterieuses.Cites.D.Or.2012.S03E17.FRENCH.1080p.HDTV.x264-DEAL
2016-11-07 19:14:29 Les.Mysterieuses.Cites.D.Or.2012.S03E17.FRENCH.720p.HDTV.x264-DEAL
2016-11-07 19:15:09 Bruno_Kauffmann_And_Ludo_Kaiser_Feat_Audrey_Graham-I_Miss_You_(Remixes)-WEB-2016-UKHx
2016-11-07 19:16:32 Les.Mysterieuses.Cites.D.Or.2012.S03E18.FRENCH.1080p.HDTV.x264-DEAL
2016-11-07 19:18:08 Les.Mysterieuses.Cites.D.Or.2012.S03E18.FRENCH.720p.HDTV.x264-DEAL
2016-11-07 19:21:15 Carl_Cox_-_Global-SAT-11-06-2016-TALiON
2016-11-07 19:23:03 Westworld.S01E06.SUBFRENCH.720p.HDTV.x264-PANZeR
2016-11-07 19:23:11 Westworld.S01E06.SUBFRENCH.HDTV.x264-PANZeR
2016-11-07 19:23:49 Boxen.2016.11.05.Tyron.Zeuge.vs.Giovanni.de.Carolis.Die.Weltmeisterschaft.im.Supermittelgewicht.German.WS.HDTVRip.x264-OMGtv
2016-11-07 19:24:58 Chus_and_Ceballos_-_In_Stereo__Incl_Nick_Curly_Guestmix-SAT-11-05-2016-TALiON
2016-11-07 19:25:06 Boxen.2016.11.05.Tyron.Zeuge.vs.Giovanni.de.Carolis.Die.Weltmeisterschaft.im.Supermittelgewicht.GERMAN.720p.HDTV.x264-OMGtv
2016-11-07 19:25:22 Whatever.It.Takes.1998.GERMAN.VHSRiP.x264-TAPECRACKERs
2016-11-07 19:25:36 Mein.Cousin.aus.Amerika.1985.GERMAN.VHSRiP.x264-TAPECRACKERs
2016-11-07 19:26:57 Westworld.S01E06.SUBFRENCH.1080p.HDTV.x264-PANZeR
2016-11-07 19:27:04 Boxen.2016.11.05.Tyron.Zeuge.vs.Giovanni.de.Carolis.Die.Weltmeisterschaft.im.Supermittelgewicht.GERMAN.1080p.HDTV.x264-OMGtv
2016-11-07 19:30:03 Zoo.S02E11.PROPER.FRENCH.720p.HDTV.x264-PANZeR
2016-11-07 19:34:14 On.The.Front.Line-SKIDROW
2016-11-07 19:36:48 On.The.Front.Line.MacOSX-TiNYiSO
2016-11-07 19:39:20 On.The.Front.Line.LiNUX-TiNYiSO
2016-11-07 19:40:15 On.The.Front.Line.X86.RIP-Unleashed
2016-11-07 19:41:12 On.The.Front.Line.X64.RIP-Unleashed
2016-11-07 19:44:17 Boxcar-Gas_Stop_(Who_Do_You_Think_You_Are)-12INCH_VINYL-FLAC-1990-LoKET
2016-11-07 19:44:30 Boy_George-No_Clause_28-12INCH_VINYL-FLAC-1988-LoKET
2016-11-07 19:44:47 Boy_George-Sold-12INCH_VINYL-FLAC-1987-LoKET
2016-11-07 19:45:03 Boys_Like_Us-What_Do_Boys_Like-12INCH_VINYL-FLAC-1989-LoKET
2016-11-07 19:45:19 David_Bowie-Real_Cool_World-12INCH_VINYL-FLAC-1992-LoKET
2016-11-07 19:46:07 Brian_Cross-Darkness_to_Light-WEB-2016-AZF
2016-11-07 19:46:23 Brian_Setzer-Rockabilly_Riot_Osaka_Rocka-Live_in_Japan_2016-WEB-2016-AZF
2016-11-07 19:46:29 On.The.Front.Line.MacOSX.X86.RIP-Unleashed
2016-11-07 19:46:55 Fiorella_Mannoia-Combattente-WEB-IT-2016-AZF
2016-11-07 19:47:01 Junk_Son-Beginning_Ending_Pretending-WEB-2016-AZF
2016-11-07 19:47:15 Laish-Pendulum_Swing-BONUS_TRACKS-WEB-2016-AZF
2016-11-07 19:47:42 La_Oreja_de_Van_Gogh-El_Planeta_Imaginario-BONUS_TRACKS-WEB-ES-2016-AZF
2016-11-07 19:47:47 Mugison-Enjoy-WEB-2016-AZF
2016-11-07 19:47:59 Tiermythen.S01E02.Die.Kinder.des.rosa.Delfins.German.DOKU.720p.WebHD.x264-CDP
2016-11-07 19:48:04 Will_Varley-Kingsdown_Sundown-WEB-2016-AZF
2016-11-07 19:49:04 Tiermythen.S01E02.Die.Kinder.des.rosa.Delfins.German.DOKU.WebRip.x264-CDP
2016-11-07 19:49:18 On.The.Front.Line.MacOSX.X64.RIP-Unleashed
2016-11-07 19:50:10 Tiermythen.S01E03.Das.Licht.des.Nordens.German.DOKU.720p.WebHD.x264-CDP
2016-11-07 19:51:16 Tiermythen.S01E03.Das.Licht.des.Nordens.German.DOKU.WebRip.x264-CDP
2016-11-07 19:52:14 Dirkie_Coetzee-S.W.A.N.E-(WAT029)-WEB-2016-UKHx
2016-11-07 19:52:25 KINETICA-The_New_World-(RISE012)-WEB-2016-UKHx
2016-11-07 19:53:12 Macy-Kaleidoscope-(99W165)-WEB-2016-UKHx
2016-11-07 19:53:13 Kiran_M_Sajeev-Once_Again-(DISCOVER187)-WEB-2016-UKHx
2016-11-07 19:53:46 Michael_Calderone-Invasion-(FLASHTR0471)-WEB-2016-UKHx
2016-11-07 19:54:02 Nitrous_Oxide-Genesis-(AMSTR144)-WEB-2016-UKHx
2016-11-07 19:54:47 Scot_Project-W5_(Waiting_For)-(OUT057)-WEB-2016-UKHx
2016-11-07 19:54:53 Appsforlife.Boxshot.4.Ultimate.v4.12.0.MACOSX-AMPED
2016-11-07 19:54:56 Seif_And_Paula_Vs_9eek-Ares-(CFL019)-WEB-2016-UKHx
2016-11-07 19:55:36 On.The.Front.Line.LiNUX.X64.RIP-Unleashed
2016-11-07 19:56:44 On.The.Front.Line.LiNUX.X86.RIP-Unleashed
2016-11-07 19:58:55 Kaitou.Joker.Fourth.Season.E06.SUBFRENCH.1080p.WEBRip.X264-SLEEPINGFOREST
2016-11-07 19:59:41 All.Out.E05.SUBFRENCH.720p.HDTV.x264-AMB3R
2016-11-07 20:00:41 All.Out.E05.SUBFRENCH.HDTV.x264-AMB3R
2016-11-07 20:01:11 Robbie_Rivera-Organic-(DOORN272)-WEB-2016-UKHx
2016-11-07 20:01:47 Kaitou.Joker.Fourth.Season.E06.SUBFRENCH.720p.WEBRip.X264-SLEEPINGFOREST
2016-11-07 20:07:08 Poldark.2015.S02D01.COMPLETE.BLURAY-DiSRUPTiON
2016-11-07 20:08:51 Independence.Day.Wiederkehr.3D.2016.German.DL.720p.BluRay.x264-ETM
2016-11-07 20:11:58 Startail_-_Sunshine__Rainbow-(AE139)-WEB-2014-HB
2016-11-07 20:11:59 4_eYe_-_Control__Mama_Dont_Cry-(AE149)-WEB-2014-HB
2016-11-07 20:12:24 On.The.Front.Line.X64.GERMAN.RIP-Unleashed
2016-11-07 20:13:46 On.The.Front.Line.X86.GERMAN.RIP-Unleashed
2016-11-07 20:15:42 Frank.Aarebrot.I.USA.S01E05.NORWEGiAN.720p.WEB.x264-BALUBA
2016-11-07 20:17:08 Kaysha-Its_Alright_This_Time-WEB-2016-USF
2016-11-07 20:17:46 Nytt.Paa.Nytt.S35E11.NORWEGiAN.720p.WEB.x264-BALUBA
2016-11-07 20:19:13 Poldark.2015.S02D02.COMPLETE.BLURAY-DiSRUPTiON
2016-11-07 20:21:56 On.The.Front.Line.X64.RUSSIAN.RIP-Unleashed
2016-11-07 20:23:39 On.The.Front.Line.X86.RUSSIAN.RIP-Unleashed
2016-11-07 20:25:24 Abity_-_Xoolshed-WEB-2016-iDC
2016-11-07 20:25:45 Cuda_-_Spread_Love-WEB-2016-iDC
2016-11-07 20:26:04 Forrest_Tales_-_Cage-WEB-2016-iDC
2016-11-07 20:26:26 Jim_Heder_-_Hook-WEB-2016-iDC
2016-11-07 20:26:51 Tim_Andresen_-_The_Latest_Edition-WEB-2016-iDC
2016-11-07 20:28:10 The.Elder.Scrolls.V.Skyrim.Special.Edition.Update.v1.1.51-BAT
2016-11-07 20:28:22 Welcome.To.Norway.2016.NORWEGIAN.720p.WEB.h264-WASTE
2016-11-07 20:29:48 On.The.Front.Line.MacOSX.X86.GERMAN.RIP-Unleashed
2016-11-07 20:31:43 Poldark.2015.S02D03.COMPLETE.BLURAY-DiSRUPTiON
2016-11-07 20:33:33 Westworld.S01E02.PROPER.SUBFRENCH.HDTV.x264-SH0W
2016-11-07 20:37:38 Skal.Vi.Danse.S12E11.NORWEGiAN.720p.HDTV.x264-TvNORGE
2016-11-07 20:40:00 Emmerdale.2016.11.07.WEB.x264-HEAT
2016-11-07 20:40:38 Hyde.and.Seek.S01E06.720p.HDTV.x264-ORENJI
2016-11-07 20:40:45 Guilt.S01E07.SPANiSH.1080p.HDTV.x264-FCC
2016-11-07 20:41:13 Guilt.S01E07.SPANiSH.720p.HDTV.x264-FCC
2016-11-07 20:41:30 Guilt.S01E07.SPANiSH.HDTV.x264-FCC
2016-11-07 20:41:42 Guilt.S01E08.SPANiSH.1080p.HDTV.x264-FCC
2016-11-07 20:42:10 Guilt.S01E08.SPANiSH.720p.HDTV.x264-FCC
2016-11-07 20:42:28 Guilt.S01E08.SPANiSH.HDTV.x264-FCC
2016-11-07 20:44:26 Akadian_Ft._Sam_George_-_Fallen_Angel-(UVM049)-WEB-2016-HB
2016-11-07 20:47:18 Radium.City.1987.WEBRip.x264-Ltu
2016-11-07 20:56:23 L.A.Crash.2004.German.DL.1080p.BluRay.x264.iNTERNAL-TVARCHiV
2016-11-07 20:56:59 Bebe_rexha-i_got_you_(mtv_ema_2016)-1080p-x264-2016-JESTERS
2016-11-07 20:59:27 Kockarnas.Kamp.S05E07.SWEDiSH.720p.HDTV.x264-xD2V
2016-11-07 20:59:28 Sofias.Anglar.S07E10.SWEDiSH.720p.HDTV.x264-xD2V
2016-11-07 20:59:33 Kockarnas.Kamp.S05E07.SWEDiSH.720p.HDTV.x264-CCCAM
2016-11-07 21:00:51 Cell.DVDR-iGNiTiON
2016-11-07 21:01:57 Audiotricz_-_Inception-(Q142)-DIRFIX-WEB-2016-HB
2016-11-07 21:03:58 Tes_t_-_Pre-(NONE001)-2016-DRUM
2016-11-07 21:05:01 On.The.Front.Line.LiNUX.X64.GERMAN.RIP-Unleashed
2016-11-07 21:05:18 On.The.Front.Line.LiNUX.X86.GERMAN.RIP-Unleashed
2016-11-07 21:05:24 On.The.Front.Line.MacOSX.X64.GERMAN.RIP-Unleashed
2016-11-07 21:05:37 On.The.Front.Line.MacOSX.X64.RUSSIAN.RIP-Unleashed
2016-11-07 21:07:04 Danskere.Paa.Tvang.S02E01.DANiSH.720p.HDTV.x264-RCDiVX
2016-11-07 21:08:38 On.The.Front.Line.MacOSX.X86.RUSSIAN.RIP-Unleashed
2016-11-07 21:09:54 Coronation.Street.2016.11.07.Part.1.WEB.x264-HEAT
2016-11-07 21:16:26 Tune_Brothers_-_Housesession_985-SAT-10-28-2016-TALiON
2016-11-07 21:16:37 Wordz_And_Brubek_-_Fool_Me_twice-(900879_8221486)-WEB-2016-ZzZz
2016-11-07 21:17:17 DJ_Favorite_-_Housesession_985-SAT-10-29-2016-TALiON
2016-11-07 21:18:12 On.The.Front.Line.LiNUX.X64.RUSSIAN.RIP-Unleashed
2016-11-07 21:18:24 Tune_Brothers_-_Housesession_986-SAT-11-04-2016-TALiON
2016-11-07 21:18:31 Mig.Og.Klassen.S01E04.DANiSH.720p.HDTV.x264-RCDiVX
2016-11-07 21:19:09 ADAGiO_-_Housesession_986-SAT-11-05-2016-TALiON
2016-11-07 21:19:12 On.The.Front.Line.LiNUX.X86.RUSSIAN.RIP-Unleashed
2016-11-07 21:21:05 Tout.Tout.De.Suite.2016.FRENCH.WEBRip.x264-COUAC
2016-11-07 21:21:19 Danskere.Paa.Tvang.S02E01.DANiSH.HDTV.x264-RCDiVX
2016-11-07 21:22:05 John_Digweed_-_Transitions_636__Incl_Ben_Gomori_Guestmix-SAT-11-05-2016-TALiON
2016-11-07 21:22:45 Doctor.Strange.TS.LD.German.x264-PsO
2016-11-07 21:27:21 Cedric_Gervais-Delecta_Sessions-SAT-07-11-2016-1KING
2016-11-07 21:27:39 Skonhetsfallan.Sverige.S02E03.SWEDiSH.720p.HDTV.x264-CCCAM
2016-11-07 21:27:51 Mig.Og.Klassen.S01E04.DANiSH.HDTV.x264-RCDiVX
2016-11-07 21:31:17 Murdoch.Mysteries.S09E18.FiNAL.DiRFiX.FRENCH.1080p.HDTV.x264-Ryotox
2016-11-07 21:32:56 Dracula.1958.1080p.BluRay.x264-SPOOKS
2016-11-07 21:32:59 Club.der.roten.Baender.S02E01.German.HDTVRiP.x264-AIDA
2016-11-07 21:34:56 Javla.Klapare.S01E03.SWEDiSH.720p.HDTV.x264-CCCAM
2016-11-07 21:35:12 Kontant.Vi.Bliver.Snydt.Af.Madens.Indpakning.DANiSH.720p.HDTV.x264-iMCARE
2016-11-07 21:35:13 Penge.Mere.Billigere.Toej.DANiSH.720p.HDTV.x264-iMCARE
2016-11-07 21:35:55 Sagopa_Kajmer_and_Kolera-Bendeki_Sen-TR-2010-NOiR
2016-11-07 21:36:20 The.Walking.Dead.S07E03.SUBFRENCH.720p.HDTV.x264-SH0W
2016-11-07 21:36:36 Dracula.1958.720p.BluRay.x264-SPOOKS
2016-11-07 21:37:50 Girls_Names-The_New_Life_(Expanded_Version)-BONUS_TRACKS-WEB-2013-ENTiTLED
2016-11-07 21:38:05 Sagopa_Kajmer-Kalp_Hastasi-TR-2013-NOiR
2016-11-07 21:38:24 Dracula.1958.REMASTERED.BDRip.x264-SPOOKS
2016-11-07 21:39:07 OTR_Gente_Guasta-Sintonizzati-IT-2012-NOiR
2016-11-07 21:41:16 Club.der.roten.Baender.S02E01.German.720p.HDTV.x264-AIDA
2016-11-07 21:42:03 Dracula.1958.ALTERNATIVE.VERSION.1080p.BluRay.x264-SPOOKS
2016-11-07 21:42:44 The.Block.AU.S12E44.HDTV.x264-FQM
2016-11-07 21:42:48 The.Block.AU.S12E44.720p.HDTV.x264-ORENJI
2016-11-07 21:43:15 Dracula.1958.ALTERNATIVE.VERSION.720p.BluRay.x264-SPOOKS
2016-11-07 21:44:54 Marceldevan_Feat_Anna_Jones_-_In_My_dreams-(900879_8221790)-WEB-2016-ZzZz
2016-11-07 21:45:07 The.Big.Bang.Theory.S10E06.SPANiSH.1080p.HDTV.X264-LPH
2016-11-07 21:45:09 Tjockare.An.Vatten.S02E04.SWEDiSH.720p.HDTV.x264-xD2V
2016-11-07 21:45:11 Tjockare.An.Vatten.S02E04.SWEDiSH.720p.HDTV.x264-CCCAM
2016-11-07 21:45:18 Dracula.1958.ALTERNATIVE.VERSION.BDRip.x264-SPOOKS
2016-11-07 21:46:05 Covenant-The_Blinding_Dark-2CD-Limited_Edition-2016-FWYH
2016-11-07 21:46:47 King_Dude-Sex-2016-FWYH
2016-11-07 21:47:37 Dimino_Luigi_-_Sexy_Sax-(DD_161103100668)-WEB-2016-ZzZz
2016-11-07 21:47:50 Mondtraeume-Free-Limited_Edition-CDEP-2016-FWYH
2016-11-07 21:48:34 VA-Sounds_From_The_Matrix_18-2016-FWYH
2016-11-07 21:50:22 Miroslav_Vrlik_-_Beach_Near_Me-(MSR049)-WEB-2016-HB
2016-11-07 21:50:55 Ley.Y.Orden.UVE.S16E13.SPANiSH.1080p.HDTV.X264-LPH
2016-11-07 21:52:01 The.Walking.Dead.S07E03.Die.Zelle.GERMAN.DUBBED.720p.HDTV.x264-ZZGtv
2016-11-07 21:52:02 The.Walking.Dad.S07E03.Die.Zelle.GERMAN.DUBBED.720p.HDTV.x2664-ZZGtv
2016-11-07 21:52:04 The.Walking.Dead.S07E03.SUBFRENCH.HDTV.x264-AMB3R
2016-11-07 21:52:15 Perdidos.S06E10.iNTERNAL.SPANiSH.1080p.HDTV.x264-FERiCE
2016-11-07 21:52:30 The.Walking.Dead.S07E03.Die.Zelle.German.Dubbed.HDTV.x264-ITG
2016-11-07 21:53:07 Parks.And.Recreation.S06E17.FRENCH.720p.HDTV.x264-AMB3R
2016-11-07 21:53:38 Lillemand.S02E04.DANiSH.720p.HDTV.x264-DiViSiON
2016-11-07 21:54:56 Ash.vs.Evil.Dead.S02E06.FRENCH.720p.HDTV.x264-SH0W
2016-11-07 21:54:57 Ash.vs.Evi.Dead.S02E06.FRENCH.720p.HDTV.x264-SH0W
2016-11-07 21:55:32 Moed.Amerika.E03.DANiSH.720p.HDTV.x264-RCDiVX
2016-11-07 21:55:50 Jessi_Riley_-_A_Little_Girl-(10113723)-WEB-2016-ZzZz
2016-11-07 21:56:56 Perdidos.S06E10.iNTERNAL.SPANiSH.720p.HDTV.x264-FERiCE
2016-11-07 21:57:13 Ley.Y.Orden.UVE.S16E14.SPANiSH.1080p.HDTV.X264-LPH
2016-11-07 21:57:43 Lykken.Er.En.Asiatisk.Kone.E01.DANiSH.720p.HDTV.x264-RCDiVX
2016-11-07 21:58:15 Kniven.Mot.Strupen.S07E05.SWEDiSH.720p.HDTV.x264-xD2V
2016-11-07 21:58:52 Perdidos.S06E10.iNTERNAL.SPANiSH.HDTV.x264-FERiCE
2016-11-07 21:59:27 Sverigequizen.S04E01.SWEDiSH.720p.HDTV.x264-xD2V
2016-11-07 22:00:21 Justin_Point_-_Miticos-(SYLIFE_928)-WEB-2016-ZzZz
2016-11-07 22:01:46 Moed.Amerika.E03.DANiSH.HDTV.x264-RCDiVX
2016-11-07 22:03:06 Parks.And.Recreation.S06E17.FRENCH.HDTV.x264-AMB3R
2016-11-07 22:03:56 Vetenskapens.Varld.2016.E31.SWEDiSH.720p.HDTV.x264-KAFFEREP
2016-11-07 22:04:19 Bastille.Day.2016.NORDiC.COMPLETE.BLURAY-BD4U
2016-11-07 22:04:36 The.Young.Pope.S01E05.FRENCH.HDTV.x264-SH0W
2016-11-07 22:05:57 Lykken.Er.En.Asiatisk.Kone.E01.DANiSH.HDTV.x264-RCDiVX
2016-11-07 22:10:16 Police.Interceptors.S11E10.HDTV.x264-PLUTONiUM
2016-11-07 22:10:27 Ice.Age.Collision.Course.2016.3D.PLDUB.DUAL.720p.BluRay.x264-FLAME
2016-11-07 22:11:22 The.Young.Pope.S01E05.FRENCH.720p.HDTV.x264-SH0W
2016-11-07 22:11:38 Ice.Age.Collision.Course.2016.3D.PLDUB.DUAL.1080p.BluRay.x264-FLAME
2016-11-07 22:11:42 Legion_To_Kill-Betrayal_Of_The_Fallen-CDEP-2015-D2H
2016-11-07 22:16:38 Ash.vs.Evil.Dead.S02E06.FRENCH.1080p.HDTV.x264-Ryotox
2016-11-07 22:17:14 NCIS.S13E22.Henry.GERMAN.DUBBED.WebHDRiP.x264-SOF
2016-11-07 22:17:19 Anthemion.Software.Jutoh.v2.50.FEDORA.LINUX.Incl.Keygen-AMPED
2016-11-07 22:17:29 Anthemion.Software.Jutoh.v2.50.FEDORA.LINUX.X64.Incl.Keygen-AMPED
2016-11-07 22:17:38 Anthemion.Software.Jutoh.v2.50.Incl.Keygen-AMPED
2016-11-07 22:17:47 Anthemion.Software.Jutoh.v2.50.LINUX.DEBIAN.Incl.Keygen-AMPED
2016-11-07 22:17:51 NCIS.S13E22.Henry.GERMAN.DUBBED.DL.720p.WebHD.h264-euHD
2016-11-07 22:17:54 Impractical.Jokers.S05E26.Nitro.Circus.Spectacular.Live.720p.HDTV.x264-W4F
2016-11-07 22:17:55 Anthemion.Software.Jutoh.v2.50.LINUX.DEBIAN.X64.Incl.Keygen-AMPED
2016-11-07 22:18:03 Anthemion.Software.Jutoh.v2.50.LINUX.Incl.Keygen-AMPED
2016-11-07 22:18:04 Robinson.Ekspeditionen.S18E11.DANiSH.720p.HDTV.x264-DiViSiON
2016-11-07 22:18:11 Anthemion.Software.Jutoh.v2.50.LINUX.X64.Incl.Keygen-AMPED
2016-11-07 22:18:19 Anthemion.Software.Jutoh.v2.50.MACOSX.Incl.Keygen-AMPED
2016-11-07 22:18:27 Anthemion.Software.Jutoh.v2.50.X64.Incl.Keygen-AMPED
2016-11-07 22:20:58 Ash.vs.Evil.Dead.S02E06.FRENCH.HDTV.x264-AMB3R
2016-11-07 22:21:47 Parks.And.Recreation.S06E18.FRENCH.720p.HDTV.x264-AMB3R
2016-11-07 22:22:15 Zombasite.LINUX-SMACKs
2016-11-07 22:22:53 Chili.Klaus.Indtager.Norden.S01E08.DANiSH.720p.HDTV.x264-RCDiVX
2016-11-07 22:23:26 A.Murder.Ballad.BONUS.Making.Of.German.Subbed.2001.DVDRiP.x264-CiA
2016-11-07 22:23:29 Pascal-Orkanen_Narmar_Sig-SE-2010-ERP
2016-11-07 22:23:36 IObit.Malware.Fighter.4.Pro.v4.4.0.3072.Incl.Keygen-AMPED
2016-11-07 22:23:48 Boston.Streets.German.2008.DVDRiP.x264.iNTERNAL-CiA
2016-11-07 22:23:55 Netsarang.Xmanager.Enterprise.v5.1026.Incl.Keygen-AMPED
2016-11-07 22:24:11 Cherry.Crush.BONUS.Behind.the.Scenes.German.Subbed.2007.DVDRiP.x264-CiA
2016-11-07 22:24:43 Hansson_De_Wolfe_United-Retrospektiv-2CD-SE-2010-ERP
2016-11-07 22:24:54 Masters.of.Sex.S04E09.SUBFRENCH.HDTV.x264-SH0W
2016-11-07 22:25:03 Supershoppers.S02E02.HDTV.x264-BARGE
2016-11-07 22:25:35 Cowboys.and.Aliens.German.2011.DVDRiP.x264.iNTERNAL-CiA
2016-11-07 22:25:54 Next.German.2007.DVDRiP.x264.iNTERNAL-CiA
2016-11-07 22:26:08 Reeperbahn-Samlade_Singlar-(Remastered)-SE-2010-ERP
2016-11-07 22:26:13 The.Double.Eiskaltes.Duell.German.2011.DVDRiP.x264.iNTERNAL-CiA
2016-11-07 22:26:19 Parks.And.Recreation.S06E18.FRENCH.HDTV.x264-AMB3R
2016-11-07 22:26:31 The.Secret.Der.Fluch.des.Amuletts.German.2005.DVDRiP.x264.iNTERNAL-CiA
2016-11-07 22:26:36 Marco_Dionigi_-_Elektro_Convolver-WEB-2016-iDC
2016-11-07 22:26:45 Chili.Klaus.Indtager.Norden.S01E08.DANiSH.HDTV.x264-RCDiVX
2016-11-07 22:27:29 Reeperbahn-Samlade_Singlar-(Remastered)-Bonus-DVD-SE-2010-ERP
2016-11-07 22:28:10 Hvem.Er.Spasseren.Nu.S01E02.DANiSH.720p.HDTV.x264-DiViSiON
2016-11-07 22:28:30 Tingsek-Restless_Soul-2009-ERP
2016-11-07 22:28:38 The.Walking.Dead.S07E03.Die.Zelle.GERMAN.DL.DUBBED.1080p.WebHD.x264-TVP
2016-11-07 22:29:04 Masters.of.Sex.S04E09.SUBFRENCH.720p.HDTV.x264-SH0W
2016-11-07 22:29:27 Robyn-Play-CDM-1999-ERP
2016-11-07 22:31:11 Crash.2004.MULTi.COMPLETE.BLURAY-UltraHD
2016-11-07 22:31:39 De_Lescano-De_Lescano-SE-2010-ERP
2016-11-07 22:33:52 Trollied.S06E01.720p.HDTV.x264-TLA
2016-11-07 22:34:52 Deadwood.S02E08.SPANiSH.HDTV.X264-LPH
2016-11-07 22:36:54 Navy.CIS.S13E22.Henry.GERMAN.DUBBED.DL.1080p.WebHD.x264-TVP
2016-11-07 22:37:12 Trollied.S06E01.HDTV.x264-TLA
2016-11-07 22:37:13 Deadwood.S02E08.SPANiSH.720p.HDTV.X264-LPH
2016-11-07 22:38:54 Deadwood.S02E08.SPANiSH.1080p.HDTV.X264-LPH
2016-11-07 22:41:19 Ray.Donovan.S04E03.Ein.krummer.Baum.German.Dubbed.HDTV.x264-ITG
2016-11-07 22:41:38 Robinson.Ekspeditionen.S18E11.DANiSH.HDTV.x264-RCDiVX
2016-11-07 22:43:15 Ray.Donovan.S04E03.Ein.krummer.Baum.GERMAN.DUBBED.720p.HDTV.x264-ZZGtv
2016-11-07 22:46:01 Club.der.roten.Baender.S02E01.German.1080p.HDTV.x264-AIDA
2016-11-07 22:48:22 Impractical.Jokers.S05E26.Nitro.Circus.Spectacular.Live.HDTV.x264-W4F
2016-11-07 22:48:59 Parks.And.Recreation.S06E19.FRENCH.720p.HDTV.x264-AMB3R
2016-11-07 22:49:41 Parks.And.Recreation.S06E19.FRENCH.HDTV.x264-AMB3R
2016-11-07 22:50:35 Doctor.Strange.TS.LD.German.x264.REPACK-PsO
2016-11-07 22:51:34 Stefan_Borsch-Jubileumsdans_5-198x-ATM
2016-11-07 22:52:29 Debatten.2016.11.03.Hvorfor.Ikke.Valg.DANiSH.PDTV.x264-iMCARE
2016-11-07 22:52:31 Nak.Og.Aed.S07E05.En.Kaenguru.I.Australien.DANiSH.PDTV.x264-iMCARE
2016-11-07 22:52:35 DR2.Tema.Amerikas.Vilde.Vesten.DANiSH.PDTV.x264-iMCARE
2016-11-07 22:52:43 DR2.Tema.Vaagen.I.En.Uge.DANiSH.PDTV.x264-iMCARE
2016-11-07 22:53:00 Mardven_-_Aim-(RIDE039)-WEB-2016-HB
2016-11-07 22:53:26 Police.Interceptors.S11E10.720p.HDTV.x264-PLUTONiUM
2016-11-07 22:55:19 Nexo.Knights.S02E08.720p.HDTV.x264-W4F
2016-11-07 22:55:45 Nexo.Knights.S02E08.HDTV.x264-W4F
2016-11-07 22:56:13 The.Young.Pope.S01E06.FRENCH.720p.HDTV.x264-SH0W
2016-11-07 22:56:49 Nostradamus-Election.2016.720p.HDTV.x264-W4F
2016-11-07 22:57:26 Nostradamus-Election.2016.HDTV.x264-W4F
2016-11-07 22:58:13 Odd.Squad.S02E11.720p.HDTV.x264-W4F
2016-11-07 22:58:50 Odd.Squad.S02E11.HDTV.x264-W4F
2016-11-07 22:59:09 Det.Sene.Show.Med.Christian.Fuhlendorff.S01E21.DANiSH.720p.HDTV.x264-DiViSiON
2016-11-07 22:59:37 Secrets.of.the.Dead.S16E01.After.Stonehenge.HDTV.x264-W4F
2016-11-07 22:59:40 I.Trumpland.Med.Filip.Och.Fredrik.2016.SWEDiSH.720p.HDTV.x264-xD2V
2016-11-07 22:59:54 The.Young.Pope.S01E06.FRENCH.HDTV.x264-SH0W
2016-11-07 22:59:56 Aisles-Hawaii-WEB-2016-ENTiTLED
2016-11-07 23:00:26 Aisles-In_Sudden_Walks-WEB-2009-ENTiTLED
2016-11-07 23:00:52 Augustine_Azul-Lombramorfose-WEB-2016-ENTiTLED
2016-11-07 23:01:16 Big_Red_Panda-Grand_Orbiter-WEB-2015-ENTiTLED
2016-11-07 23:01:40 American.Experience.S29E02.The.Battle.of.Chosin.720p.HDTV.x264-W4F
2016-11-07 23:01:46 Brimstone-Mannsverk-WEB-2015-ENTiTLED
2016-11-07 23:02:06 Cerulia-The_Wishing_Tree_Vol_2_The_Birth_of_a_Titan-WEB-2012-ENTiTLED
2016-11-07 23:02:29 Chasca-Bedtime_for_Bedlamites-WEB-2013-ENTiTLED
2016-11-07 23:03:09 Coalition-Bridge_Across_Time-WEB-2016-ENTiTLED
2016-11-07 23:03:46 Coalition-In_Search_of_Forever-WEB-2012-ENTiTLED
2016-11-07 23:04:40 Corvus_Stone-Corvus_Stone_II-WEB-2014-ENTiTLED
2016-11-07 23:04:43 ID2.Shadwell.Army.2016.LIMITED.720p.BluRay.x264-BiPOLAR
2016-11-07 23:05:29 Dean_Watson-Fantasizer-WEB-2014-ENTiTLED
2016-11-07 23:05:42 American.Experience.S29E02.The.Battle.of.Chosin.HDTV.x264-W4F
2016-11-07 23:06:09 Dean_Watson-Imposing_Elements-WEB-2012-ENTiTLED
2016-11-07 23:06:32 Devoted_Fusion-A_Ride_Earthbound-WEB-2016-ENTiTLED
2016-11-07 23:07:15 Driftglass-All_That_Remains-WEB-2014-ENTiTLED
2016-11-07 23:07:51 Dropshard-Silk-WEB-2014-ENTiTLED
2016-11-07 23:08:37 ID2.Shadwell.Army.2016.LIMITED.BDRip.x264-BiPOLAR
2016-11-07 23:08:49 Edisons_Children-Somewhere_Between_Here_and_There-WEB-2015-ENTiTLED
2016-11-07 23:09:19 Five_Alarm_Funk-Abandon_Earth-WEB-2014-ENTiTLED
2016-11-07 23:09:48 Ghost_Community-Cycle_of_Life-WEB-2016-ENTiTLED
2016-11-07 23:10:30 Hellhaven-Beyond_The_Frontier-WEB-2012-ENTiTLED
2016-11-07 23:11:21 Hibernal-After_the_Winter-WEB-2015-ENTiTLED
2016-11-07 23:12:07 Hibernal-Replacements-WEB-2014-ENTiTLED
2016-11-07 23:12:12 ID2.Shadwell.Army.2016.LIMITED.1080p.BluRay.x264-BiPOLAR
2016-11-07 23:12:14 Parks.And.Recreation.S06E20.FRENCH.720p.HDTV.x264-AMB3R
2016-11-07 23:12:39 Holy_Lamb-Gyrosophy-WEB-2016-ENTiTLED
2016-11-07 23:13:00 Husky_Riders-Safety_in_Numbers-WEB-2015-ENTiTLED
2016-11-07 23:13:17 Parks.And.Recreation.S06E20.FRENCH.HDTV.x264-AMB3R
2016-11-07 23:13:25 Ian_Neal-Astro-WEB-2013-ENTiTLED
2016-11-07 23:14:02 Ian_Neal-Out_Of_The_Woods-WEB-2011-ENTiTLED
2016-11-07 23:14:29 Jason_Rubenstein-Four_Named_Narratives-WEB-2016-ENTiTLED
2016-11-07 23:15:10 Kerrs_Pink-Mystic_Spirit-WEB-2014-ENTiTLED
2016-11-07 23:15:37 Late_Cambrian-Golden_Time-WEB-2014-ENTiTLED
2016-11-07 23:16:08 Libertys_Exiles-The_Children_of_Destiny-WEB-2016-ENTiTLED
2016-11-07 23:16:41 Natholdet.S13E24.DANiSH.720p.HDTV.x264-DiViSiON
2016-11-07 23:16:42 Mental_Architects-Celebrations-WEB-2012-ENTiTLED
2016-11-07 23:17:16 Mo_Lowda_And_the_Humble-Curse_the_Weather-WEB-2013-ENTiTLED
2016-11-07 23:17:36 Supershoppers.S02E02.720p.HDTV.x264-BARGE
2016-11-07 23:17:50 Modest_Midget-Crysis-WEB-2014-ENTiTLED
2016-11-07 23:18:21 Monster_Eiffel_Tower-Under_the_Wake-WEB-2008-ENTiTLED
2016-11-07 23:18:42 MoonStriker-Axis_Mundi-WEB-2013-ENTiTLED
2016-11-07 23:19:20 Noesis-The_Current-WEB-2016-ENTiTLED
2016-11-07 23:19:46 Not_Otherwise_Specified-Projective_Instruments-WEB-2014-ENTiTLED
2016-11-07 23:20:28 Nth_Ascension-In_Fine_Initium-WEB-2016-ENTiTLED
2016-11-07 23:21:07 Numen-Samsara-WEB-1998-ENTiTLED
2016-11-07 23:21:30 Oktopus-Worlds_Apart-WEB-2016-ENTiTLED
2016-11-07 23:21:40 Divorce.S01E05.FRENCH.720p.HDTV.x264-SH0W
2016-11-07 23:21:59 Orion-La_face_visible-WEB-2015-ENTiTLED
2016-11-07 23:22:33 PAINTonPAINT-Night_Rises-WEB-2016-ENTiTLED
2016-11-07 23:22:56 Palindrome-Bundle_These_Last_Scattered_Synapses-WEB-2013-ENTiTLED
2016-11-07 23:23:29 Perfect_Beings-II-WEB-2015-ENTiTLED
2016-11-07 23:23:47 Process_of_Illumination-Fifteen-WEB-2016-ENTiTLED
2016-11-07 23:24:23 Quaoar-Dreamers_Dreaming-WEB-2015-ENTiTLED
2016-11-07 23:24:49 Red_Room_Cinema-Apsis-WEB-2012-ENTiTLED
2016-11-07 23:25:24 Seven_Impale-Contrapasso-WEB-2016-ENTiTLED
2016-11-07 23:26:01 SoulCrafters-Home_Atlas-WEB-2016-ENTiTLED
2016-11-07 23:26:27 Spleen_Arcana-The_Field_Where_She_Died-WEB-2009-ENTiTLED
2016-11-07 23:26:49 Stellar_Circuits-Stellar_Circuits-WEB-2015-ENTiTLED
2016-11-07 23:27:12 Temple_of_Switches-Temple_of_Switches-WEB-2015-ENTiTLED
2016-11-07 23:27:40 The_Contrarian-Northern_Lights-WEB-2008-ENTiTLED
2016-11-07 23:28:09 The_Halfways-Exit-WEB-2013-ENTiTLED
2016-11-07 23:28:29 Coronation.Street.2016.11.07.Part.2.WEB.x264-HEAT
2016-11-07 23:28:37 The_Inner_Road-Ascension-WEB-2013-ENTiTLED
2016-11-07 23:29:15 The_Inner_Road-Visions-WEB-2011-ENTiTLED
2016-11-07 23:29:37 The_Last_Drink_Is_Yours-Vilena-WEB-2014-ENTiTLED
2016-11-07 23:30:18 The_Psychedelic_Ensemble-The_Sunstone-WEB-2015-ENTiTLED
2016-11-07 23:30:48 The_White_Kites-Missing-WEB-2014-ENTiTLED
2016-11-07 23:31:01 Bobs.Burgers.S05E02.Tina.und.der.echte.Geist.GERMAN.DUBBED.DL.1080p.WebHD.x264-TVP
2016-11-07 23:31:17 Trees_On_Mars-The_Sapling-WEB-2014-ENTiTLED
2016-11-07 23:31:33 Morgana.Robinsons.The.Agency.S01E07.720p.HDTV.x264-MORiTZ
2016-11-07 23:31:52 Twilight_Fields-Further_Up_Further_In-WEB-2016-ENTiTLED
2016-11-07 23:32:18 Words_for_Penga-Prose-WEB-2015-ENTiTLED
2016-11-07 23:32:21 Parks.And.Recreation.S06E21.FRENCH.720p.HDTV.x264-AMB3R
2016-11-07 23:32:36 Xanima-Eyes_Only-WEB-2016-ENTiTLED
2016-11-07 23:33:05 Bobs.Burgers.S05E02.Tina.und.der.echte.Geist.GERMAN.DUBBED.DL.720p.WebHD.x264-TVP
2016-11-07 23:33:15 Xanima-Prototype_Homo_Sapiens-WEB-2013-ENTiTLED
2016-11-07 23:33:24 Parks.And.Recreation.S06E21.FRENCH.HDTV.x264-AMB3R
2016-11-07 23:34:31 NETGATE.Registry.Cleaner.v16.0.405.0.Keygen.Only-AMPED
2016-11-07 23:35:11 Bobs.Burgers.S05E02.Tina.und.der.echte.Geist.GERMAN.DUBBED.WS.WebRip.x264-TVP
2016-11-07 23:35:25 Divorce.S01E05.FRENCH.HDTV.x264-AMB3R
2016-11-07 23:37:13 SAS.Who.Dares.Wins.S02E04.720p.HDTV.x264-BEGUN
2016-11-07 23:37:58 Drifters.S04E05.720p.HDTV.x264-TLA
2016-11-07 23:38:07 Club.der.roten.Baender.S02E02.German.HDTVRip.x264-AIDA
2016-11-07 23:38:17 American.Dad.S13E03.Die.froehliche.Hayley.GERMAN.DUBBED.DL.1080p.WebHD.x264-TVP
2016-11-07 23:38:28 Designated.Survivor.S01E01.POLISH.720p.WEBRip.x264-ProPLTV
2016-11-07 23:38:51 The.Walking.Dead.S07E03.POLISH.720p.HDTV.x264-ProPLTV
2016-11-07 23:40:21 American.Dad.S13E03.Die.froehliche.Hayley.GERMAN.DUBBED.DL.720p.WebHD.x264-TVP
2016-11-07 23:41:02 Dark.Angel.2016.S01E02.720p.HDTV.x264-TLA
2016-11-07 23:41:49 My_Dying_Bride-Meisterwerk_III-WEB-2016-ENTiTLED
2016-11-07 23:42:26 American.Dad.S13E03.Die.froehliche.Hayley.GERMAN.DUBBED.WS.WebRip.x264-TVP
2016-11-07 23:42:52 Stratovarius-Destiny_(Reissue_2016)-WEB-2016-ENTiTLED
2016-11-07 23:43:30 Darkest_Sins-The_Broken-WEB-2016-ENTiTLED
2016-11-07 23:44:17 Korsakow-Superzelle-WEB-DE-2016-ENTiTLED
2016-11-07 23:44:22 Drifters.S04E05.HDTV.x264-TLA
2016-11-07 23:45:09 Voodoo_Juergens-Ansa_Woar-WEB-DE-2016-ENTiTLED
2016-11-07 23:45:28 SAS.Who.Dares.Wins.S02E04.HDTV.x264-BEGUN
2016-11-07 23:45:39 Wild_Souls-Game_of_Love-WEB-2016-ENTiTLED
2016-11-07 23:46:10 Aversed-Renewal-WEB-2016-ENTiTLED
2016-11-07 23:46:18 DULEP_and_NEUSS_-_Dead_End_Escape-(SUB907)-WEB-2016-ZzZz
2016-11-07 23:47:02 Mothman-Answers_to_No_One-WEB-2016-ENTiTLED
2016-11-07 23:47:16 Harry_Potar_-_Strange_Attractor_-_Day_Of_Wrath-(02)-WEB-2016-ZzZz
2016-11-07 23:47:17 The.Crown.S01E10.720p.WEBRip.X264-DEFLATE
2016-11-07 23:47:42 Moth_in_Lilac-MiL-WEB-2016-ENTiTLED
2016-11-07 23:47:59 Techkwando_-_The_Awakening-(SUB905)-WEB-2016-ZzZz
2016-11-07 23:48:10 Sweet_Creature-The_Devil_Knows_My_Name-WEB-2016-ENTiTLED
2016-11-07 23:48:41 Sensles-Monkeys_Will_Be_Back-WEB-2016-ENTiTLED
2016-11-07 23:49:24 Thrown_into_Exile-Safe_Inside-WEB-2016-ENTiTLED
2016-11-07 23:49:25 NFL.2016.10.30.Redskins.vs.Bengals.GERMAN.720p.HDTV.x264-REQiT
2016-11-07 23:49:49 Askara-Horizon_of_Hope-WEB-2016-ENTiTLED
2016-11-07 23:50:36 Captain_Crimson-Remind-WEB-2016-ENTiTLED
2016-11-07 23:50:53 Perdidos.S06E11.iNTERNAL.SPANiSH.1080p.HDTV.x264-FERiCE
2016-11-07 23:51:15 Cliff_Barnes_And_The_Fear_Of_Winning-World2hot-WEB-2016-ENTiTLED
2016-11-07 23:51:42 Perdidos.S06E11.iNTERNAL.SPANiSH.720p.HDTV.x264-FERiCE
2016-11-07 23:51:49 Dark.Angel.2016.S01E02.HDTV.x264-RiVER
2016-11-07 23:51:50 Alfredo_Gargaro-Various-WEB-2016-ENTiTLED
2016-11-07 23:51:56 Insecure.s01E05.FRENCH.720p.HDTV.x264-SH0W
2016-11-07 23:52:05 Tales_of_a_Novelist-Tales_of_a_Novelist-EP-WEB-2016-ENTiTLED
2016-11-07 23:52:37 Perdidos.S06E11.iNTERNAL.SPANiSH.HDTV.x264-FERiCE
2016-11-07 23:54:37 Divorce.S01E05.FRENCH.1080p.HDTV.x264-SH0W
2016-11-07 23:56:47 Beware_Of_Darkness-Are_You_Real-WEB-2016-ENTiTLED
2016-11-07 23:56:58 Angel.O.Demonio.S02E01.SPANiSH.BDRip.x264-FERiCE
2016-11-07 23:57:02 Stunning18.com_16.11.07.Ella.Presenting.Ella.XXX.IMAGESET-GAGBALL
2016-11-07 23:59:45 GTA-Good_Times_Ahead-CD-FLAC-2016-PERFECT